Wetterdaten: Mittwoch, 01.01.2020
Datum Zeit Temp. Aussen Temp. o. S. Temp +5cm Feuchte Auss Luftdruck Regen Sonnenschein Regendauer Solar Windben Empfang
01.01.2020 00:00 0,1 C -0,6 C -1,7 C 95 % 1035,8 hPa 0,0 l/m 0 min 0 min 0 W/m 3,2 km/h (1 Bft) 93,62 %
01.01.2020 00:02 0,1 C -0,6 C -1,7 C 95 % 1035,7 hPa 0,0 l/m 0 min 0 min 0 W/m 0,0 km/h (0 Bft) 5,88 %
01.01.2020 00:04 0,2 C 0,0 C -1,1 C 95 % 1035,7 hPa 0,0 l/m 0 min 0 min 0 W/m 0,0 km/h (0 Bft) 81,58 %
01.01.2020 00:08 0,3 C 0,0 C -1,1 C 95 % 1035,7 hPa 0,0 l/m 0 min 0 min 0 W/m 3,2 km/h (1 Bft) 96,81 %
01.01.2020 00:10 0,3 C 0,0 C -1,1 C 95 % 1035,7 hPa 0,0 l/m 0 min 0 min 0 W/m 0,0 km/h (0 Bft) 35,48 %
01.01.2020 00:12 0,4 C 0,0 C -1,1 C 95 % 1035,7 hPa 0,0 l/m 0 min 0 min 0 W/m 3,2 km/h (1 Bft) 100,00 %
01.01.2020 00:14 0,5 C 0,0 C -0,6 C 96 % 1035,7 hPa 0,0 l/m 0 min 0 min 0 W/m 3,2 km/h (1 Bft) 97,87 %
01.01.2020 00:16 0,6 C 0,0 C -1,1 C 96 % 1035,7 hPa 0,0 l/m 0 min 0 min 0 W/m 0,0 km/h (0 Bft) 97,87 %
01.01.2020 00:18 0,6 C 0,0 C -1,1 C 96 % 1035,6 hPa 0,0 l/m 0 min 0 min 0 W/m 0,0 km/h (0 Bft) 95,74 %
01.01.2020 00:20 0,6 C 0,0 C -1,1 C 96 % 1035,5 hPa 0,0 l/m 0 min 0 min 0 W/m 0,0 km/h (0 Bft) 97,87 %
01.01.2020 00:22 0,6 C 0,0 C -1,1 C 96 % 1035,5 hPa 0,0 l/m 0 min 0 min 0 W/m 0,0 km/h (0 Bft) 97,87 %
01.01.2020 00:24 0,6 C 0,0 C -1,1 C 96 % 1035,5 hPa 0,0 l/m 0 min 0 min 0 W/m 0,0 km/h (0 Bft) 97,83 %
01.01.2020 00:26 0,6 C 0,0 C -0,6 C 96 % 1035,6 hPa 0,0 l/m 0 min 0 min 0 W/m 12,9 km/h (3 Bft) 97,87 %
01.01.2020 00:28 0,6 C 0,0 C -0,6 C 96 % 1035,5 hPa 0,0 l/m 0 min 0 min 0 W/m 6,4 km/h (2 Bft) 97,87 %
01.01.2020 00:30 0,6 C 0,0 C -0,6 C 96 % 1035,5 hPa 0,0 l/m 0 min 0 min 0 W/m 3,2 km/h (1 Bft) 97,87 %
01.01.2020 00:32 0,6 C 0,0 C -0,6 C 96 % 1035,4 hPa 0,0 l/m 0 min 0 min 0 W/m 0,0 km/h (0 Bft) 97,87 %
01.01.2020 00:34 0,6 C 0,0 C -0,6 C 96 % 1035,3 hPa 0,0 l/m 0 min 0 min 0 W/m 0,0 km/h (0 Bft) 95,74 %
01.01.2020 00:36 0,6 C 0,0 C -0,6 C 96 % 1035,4 hPa 0,0 l/m 0 min 0 min 0 W/m 0,0 km/h (0 Bft) 97,83 %
01.01.2020 00:38 0,6 C 0,0 C -0,6 C 96 % 1035,4 hPa 0,0 l/m 0 min 0 min 0 W/m 0,0 km/h (0 Bft) 97,87 %
01.01.2020 00:40 0,6 C 0,0 C -1,1 C 96 % 1035,4 hPa 0,0 l/m 0 min 0 min 0 W/m 0,0 km/h (0 Bft) 97,87 %
01.01.2020 00:42 0,6 C 0,0 C -1,1 C 96 % 1035,3 hPa 0,0 l/m 0 min 0 min 0 W/m 0,0 km/h (0 Bft) 97,87 %
01.01.2020 00:44 0,6 C 0,0 C -1,1 C 96 % 1035,3 hPa 0,0 l/m 0 min 0 min 0 W/m 0,0 km/h (0 Bft) 97,87 %
01.01.2020 00:46 0,6 C -0,6 C -1,1 C 96 % 1035,3 hPa 0,0 l/m 0 min 0 min 0 W/m 0,0 km/h (0 Bft) 97,87 %
01.01.2020 00:48 0,6 C -0,6 C -1,1 C 96 % 1035,3 hPa 0,0 l/m 0 min 0 min 0 W/m 0,0 km/h (0 Bft) 97,83 %
01.01.2020 00:50 0,6 C -0,6 C -1,1 C 96 % 1035,3 hPa 0,0 l/m 0 min 0 min 0 W/m 6,4 km/h (2 Bft) 97,87 %
01.01.2020 00:52 0,6 C -0,6 C -1,1 C 96 % 1035,3 hPa 0,0 l/m 0 min 0 min 0 W/m 0,0 km/h (0 Bft) 95,74 %
01.01.2020 00:54 0,6 C -0,6 C -1,1 C 96 % 1035,3 hPa 0,0 l/m 0 min 0 min 0 W/m 0,0 km/h (0 Bft) 55,56 %
01.01.2020 00:56 0,6 C -0,6 C -1,1 C 96 % 1035,3 hPa 0,0 l/m 0 min 0 min 0 W/m 3,2 km/h (1 Bft) 95,74 %
01.01.2020 00:58 0,6 C -0,6 C -1,1 C 96 % 1035,3 hPa 0,0 l/m 0 min 0 min 0 W/m 0,0 km/h (0 Bft) 97,83 %
01.01.2020 01:00 0,6 C -0,6 C -1,1 C 96 % 1035,2 hPa 0,0 l/m 0 min 0 min 0 W/m 0,0 km/h (0 Bft) 100,00 %
01.01.2020 01:02 0,6 C -0,6 C -1,1 C 96 % 1035,2 hPa 0,0 l/m 0 min 0 min 0 W/m 0,0 km/h (0 Bft) 100,00 %
01.01.2020 01:04 0,5 C -0,6 C -1,1 C 96 % 1035,1 hPa 0,0 l/m 0 min 0 min 0 W/m 0,0 km/h (0 Bft) 97,78 %
01.01.2020 01:06 0,5 C -0,6 C -1,1 C 96 % 1035,0 hPa 0,0 l/m 0 min 0 min 0 W/m 3,2 km/h (1 Bft) 100,00 %
01.01.2020 01:08 0,4 C -0,6 C -1,1 C 96 % 1035,0 hPa 0,0 l/m 0 min 0 min 0 W/m 0,0 km/h (0 Bft) 100,00 %
01.01.2020 01:10 0,4 C -0,6 C -1,1 C 96 % 1035,0 hPa 0,0 l/m 0 min 0 min 0 W/m 3,2 km/h (1 Bft) 100,00 %
01.01.2020 01:12 0,4 C -0,6 C -1,1 C 96 % 1034,9 hPa 0,0 l/m 0 min 0 min 0 W/m 0,0 km/h (0 Bft) 97,87 %
01.01.2020 01:14 0,4 C -0,6 C -1,1 C 96 % 1034,9 hPa 0,0 l/m 0 min 0 min 0 W/m 3,2 km/h (1 Bft) 97,83 %
01.01.2020 01:16 0,3 C -0,6 C -1,1 C 96 % 1034,8 hPa 0,0 l/m 0 min 0 min 0 W/m 6,4 km/h (2 Bft) 100,00 %
01.01.2020 01:18 0,3 C -0,6 C -1,1 C 96 % 1034,8 hPa 0,0 l/m 0 min 0 min 0 W/m 6,4 km/h (2 Bft) 97,87 %
01.01.2020 01:20 0,3 C -0,6 C -1,1 C 96 % 1034,8 hPa 0,0 l/m 0 min 0 min 0 W/m 3,2 km/h (1 Bft) 100,00 %
01.01.2020 01:22 0,3 C -0,6 C -1,1 C 96 % 1034,8 hPa 0,0 l/m 0 min 0 min 0 W/m 3,2 km/h (1 Bft) 100,00 %
01.01.2020 01:24 0,3 C -0,6 C -1,1 C 96 % 1034,8 hPa 0,0 l/m 0 min 0 min 0 W/m 9,7 km/h (2 Bft) 100,00 %
01.01.2020 01:26 0,3 C -0,6 C -1,1 C 96 % 1034,8 hPa 0,0 l/m 0 min 0 min 0 W/m 6,4 km/h (2 Bft) 100,00 %
01.01.2020 01:28 0,3 C -0,6 C -1,1 C 96 % 1034,8 hPa 0,0 l/m 0 min 0 min 0 W/m 3,2 km/h (1 Bft) 100,00 %
01.01.2020 01:30 0,2 C -0,6 C -1,1 C 97 % 1034,7 hPa 0,0 l/m 0 min 0 min 0 W/m 3,2 km/h (1 Bft) 100,00 %
01.01.2020 01:32 0,2 C -0,6 C -1,1 C 97 % 1034,7 hPa 0,0 l/m 0 min 0 min 0 W/m 3,2 km/h (1 Bft) 100,00 %
01.01.2020 01:34 0,2 C -0,6 C -1,1 C 97 % 1034,8 hPa 0,0 l/m 0 min 0 min 0 W/m 0,0 km/h (0 Bft) 100,00 %
01.01.2020 01:36 0,2 C -0,6 C -1,7 C 97 % 1034,7 hPa 0,0 l/m 0 min 0 min 0 W/m 3,2 km/h (1 Bft) 100,00 %
01.01.2020 01:38 0,2 C -1,1 C -1,7 C 96 % 1034,8 hPa 0,0 l/m 0 min 0 min 0 W/m 0,0 km/h (0 Bft) 100,00 %
01.01.2020 01:40 0,2 C -1,1 C -1,7 C 96 % 1034,8 hPa 0,0 l/m 0 min 0 min 0 W/m 0,0 km/h (0 Bft) 97,87 %
01.01.2020 01:42 0,1 C -0,6 C -1,7 C 96 % 1034,8 hPa 0,0 l/m 0 min 0 min 0 W/m 0,0 km/h (0 Bft) 97,87 %
01.01.2020 01:44 0,1 C -0,6 C -1,1 C 96 % 1034,8 hPa 0,0 l/m 0 min 0 min 0 W/m 0,0 km/h (0 Bft) 100,00 %
01.01.2020 01:46 0,1 C -0,6 C -1,1 C 96 % 1034,8 hPa 0,0 l/m 0 min 0 min 0 W/m 0,0 km/h (0 Bft) 100,00 %
01.01.2020 01:48 0,1 C -0,6 C -1,1 C 97 % 1034,7 hPa 0,0 l/m 0 min 0 min 0 W/m 3,2 km/h (1 Bft) 97,87 %
01.01.2020 01:50 0,1 C -0,6 C -1,1 C 97 % 1034,8 hPa 0,0 l/m 0 min 0 min 0 W/m 3,2 km/h (1 Bft) 95,65 %
01.01.2020 01:52 0,1 C -0,6 C -1,1 C 97 % 1034,8 hPa 0,0 l/m 0 min 0 min 0 W/m 0,0 km/h (0 Bft) 100,00 %
01.01.2020 01:54 0,1 C -0,6 C -1,1 C 97 % 1034,8 hPa 0,0 l/m 0 min 0 min 0 W/m 6,4 km/h (2 Bft) 97,87 %
01.01.2020 01:56 0,2 C -0,6 C -1,1 C 97 % 1034,8 hPa 0,0 l/m 0 min 0 min 0 W/m 6,4 km/h (2 Bft) 95,74 %
01.01.2020 01:58 0,2 C -0,6 C -1,1 C 97 % 1034,8 hPa 0,0 l/m 0 min 0 min 0 W/m 0,0 km/h (0 Bft) 95,74 %
01.01.2020 02:00 0,2 C -0,6 C -1,1 C 97 % 1034,8 hPa 0,0 l/m 0 min 0 min 0 W/m 3,2 km/h (1 Bft) 95,65 %
01.01.2020 02:02 0,2 C -0,6 C -1,1 C 97 % 1034,7 hPa 0,0 l/m 0 min 0 min 0 W/m 0,0 km/h (0 Bft) 95,74 %
01.01.2020 02:04 0,2 C -0,6 C -1,1 C 97 % 1034,7 hPa 0,0 l/m 0 min 0 min 0 W/m 3,2 km/h (1 Bft) 93,62 %
01.01.2020 02:06 0,2 C -0,6 C -1,1 C 97 % 1034,7 hPa 0,0 l/m 0 min 0 min 0 W/m 3,2 km/h (1 Bft) 95,74 %
01.01.2020 02:08 0,2 C -0,6 C -1,1 C 97 % 1034,7 hPa 0,0 l/m 0 min 0 min 0 W/m 3,2 km/h (1 Bft) 95,74 %
01.01.2020 02:10 0,2 C -0,6 C -1,1 C 97 % 1034,7 hPa 0,0 l/m 0 min 0 min 0 W/m 3,2 km/h (1 Bft) 95,74 %
01.01.2020 02:12 0,2 C 0,0 C -1,1 C 97 % 1034,8 hPa 0,0 l/m 0 min 0 min 0 W/m 0,0 km/h (0 Bft) 91,30 %
01.01.2020 02:14 0,2 C -0,6 C -1,1 C 97 % 1034,8 hPa 0,0 l/m 0 min 0 min 0 W/m 0,0 km/h (0 Bft) 93,62 %
01.01.2020 02:16 0,2 C -0,6 C -1,1 C 97 % 1034,8 hPa 0,0 l/m 0 min 0 min 0 W/m 0,0 km/h (0 Bft) 93,62 %
01.01.2020 02:18 0,2 C -0,6 C -1,7 C 97 % 1034,9 hPa 0,0 l/m 0 min 0 min 0 W/m 0,0 km/h (0 Bft) 93,62 %
01.01.2020 02:20 0,2 C -1,1 C -1,7 C 97 % 1034,9 hPa 0,0 l/m 0 min 0 min 0 W/m 0,0 km/h (0 Bft) 95,74 %
01.01.2020 02:22 0,2 C -1,1 C -1,7 C 97 % 1034,9 hPa 0,0 l/m 0 min 0 min 0 W/m 0,0 km/h (0 Bft) 95,74 %
01.01.2020 02:24 0,2 C -0,6 C -1,7 C 97 % 1034,8 hPa 0,0 l/m 0 min 0 min 0 W/m 0,0 km/h (0 Bft) 95,65 %
01.01.2020 02:26 0,2 C -0,6 C -1,7 C 97 % 1034,7 hPa 0,0 l/m 0 min 0 min 0 W/m 0,0 km/h (0 Bft) 95,74 %
01.01.2020 02:28 0,2 C -0,6 C -1,7 C 97 % 1034,7 hPa 0,0 l/m 0 min 0 min 0 W/m 0,0 km/h (0 Bft) 95,74 %
01.01.2020 02:30 0,1 C -0,6 C -1,1 C 97 % 1034,6 hPa 0,0 l/m 0 min 0 min 0 W/m 0,0 km/h (0 Bft) 95,74 %
01.01.2020 02:32 0,1 C -0,6 C -1,1 C 97 % 1034,6 hPa 0,0 l/m 0 min 0 min 0 W/m 9,7 km/h (2 Bft) 95,74 %
01.01.2020 02:34 0,2 C -0,6 C -1,1 C 97 % 1034,6 hPa 0,0 l/m 0 min 0 min 0 W/m 6,4 km/h (2 Bft) 95,74 %
01.01.2020 02:36 0,2 C 0,0 C -1,1 C 97 % 1034,5 hPa 0,0 l/m 0 min 0 min 0 W/m 12,9 km/h (3 Bft) 95,65 %
01.01.2020 02:38 0,2 C 0,0 C -0,6 C 97 % 1034,5 hPa 0,0 l/m 0 min 0 min 0 W/m 12,9 km/h (3 Bft) 93,62 %
01.01.2020 02:40 0,2 C 0,0 C -0,6 C 97 % 1034,5 hPa 0,0 l/m 0 min 0 min 0 W/m 6,4 km/h (2 Bft) 95,74 %
01.01.2020 02:42 0,3 C 0,0 C -0,6 C 97 % 1034,6 hPa 0,0 l/m 0 min 0 min 0 W/m 3,2 km/h (1 Bft) 95,74 %
01.01.2020 02:44 0,3 C 0,0 C -1,1 C 97 % 1034,7 hPa 0,0 l/m 0 min 0 min 0 W/m 3,2 km/h (1 Bft) 93,62 %
01.01.2020 02:46 0,3 C 0,0 C -1,1 C 97 % 1034,7 hPa 0,0 l/m 0 min 0 min 0 W/m 3,2 km/h (1 Bft) 93,62 %
01.01.2020 02:48 0,3 C -0,6 C -1,1 C 97 % 1034,8 hPa 0,0 l/m 0 min 0 min 0 W/m 0,0 km/h (0 Bft) 97,83 %
01.01.2020 02:50 0,3 C -0,6 C -1,1 C 97 % 1034,8 hPa 0,0 l/m 0 min 0 min 0 W/m 0,0 km/h (0 Bft) 97,87 %
01.01.2020 02:52 0,3 C -0,6 C -1,1 C 97 % 1034,7 hPa 0,0 l/m 0 min 0 min 0 W/m 6,4 km/h (2 Bft) 95,74 %
01.01.2020 02:54 0,3 C -0,6 C -1,1 C 97 % 1034,7 hPa 0,0 l/m 0 min 0 min 0 W/m 0,0 km/h (0 Bft) 95,74 %
01.01.2020 02:56 0,3 C -0,6 C -1,1 C 97 % 1034,7 hPa 0,0 l/m 0 min 0 min 0 W/m 0,0 km/h (0 Bft) 95,74 %
01.01.2020 02:58 0,3 C -0,6 C -1,1 C 97 % 1034,8 hPa 0,0 l/m 0 min 0 min 0 W/m 3,2 km/h (1 Bft) 97,87 %
01.01.2020 03:00 0,3 C -0,6 C -1,1 C 97 % 1034,8 hPa 0,0 l/m 0 min 0 min 0 W/m 3,2 km/h (1 Bft) 97,83 %
01.01.2020 03:02 0,3 C -0,6 C -1,1 C 97 % 1034,7 hPa 0,0 l/m 0 min 0 min 0 W/m 0,0 km/h (0 Bft) 95,74 %
01.01.2020 03:04 0,3 C -0,6 C -1,1 C 97 % 1034,7 hPa 0,0 l/m 0 min 0 min 0 W/m 6,4 km/h (2 Bft) 97,87 %
01.01.2020 03:06 0,3 C -0,6 C -1,1 C 97 % 1034,7 hPa 0,0 l/m 0 min 0 min 0 W/m 3,2 km/h (1 Bft) 97,87 %
01.01.2020 03:08 0,3 C -0,6 C -1,1 C 97 % 1034,7 hPa 0,0 l/m 0 min 0 min 0 W/m 3,2 km/h (1 Bft) 97,87 %
01.01.2020 03:10 0,3 C -0,6 C -1,1 C 97 % 1034,7 hPa 0,0 l/m 0 min 0 min 0 W/m 6,4 km/h (2 Bft) 97,87 %
01.01.2020 03:12 0,3 C -0,6 C -1,1 C 97 % 1034,6 hPa 0,0 l/m 0 min 0 min 0 W/m 3,2 km/h (1 Bft) 93,48 %
01.01.2020 03:14 0,3 C 0,0 C -0,6 C 97 % 1034,6 hPa 0,0 l/m 0 min 0 min 0 W/m 3,2 km/h (1 Bft) 97,87 %
01.01.2020 03:16 0,3 C 0,0 C -0,6 C 97 % 1034,6 hPa 0,0 l/m 0 min 0 min 0 W/m 3,2 km/h (1 Bft) 97,87 %
01.01.2020 03:18 0,4 C 0,0 C -0,6 C 97 % 1034,5 hPa 0,0 l/m 0 min 0 min 0 W/m 3,2 km/h (1 Bft) 97,87 %
01.01.2020 03:20 0,3 C 0,0 C -0,6 C 97 % 1034,5 hPa 0,0 l/m 0 min 0 min 0 W/m 0,0 km/h (0 Bft) 97,87 %
01.01.2020 03:22 0,4 C 0,0 C -0,6 C 97 % 1034,5 hPa 0,0 l/m 0 min 0 min 0 W/m 0,0 km/h (0 Bft) 95,65 %
01.01.2020 03:24 0,4 C 0,0 C -0,6 C 97 % 1034,5 hPa 0,0 l/m 0 min 0 min 0 W/m 16,1 km/h (3 Bft) 97,87 %
01.01.2020 03:26 0,4 C 0,0 C -0,6 C 97 % 1034,4 hPa 0,0 l/m 0 min 0 min 0 W/m 19,3 km/h (3 Bft) 97,87 %
01.01.2020 03:28 0,4 C 0,0 C -0,6 C 97 % 1034,4 hPa 0,0 l/m 0 min 0 min 0 W/m 6,4 km/h (2 Bft) 97,87 %
01.01.2020 03:30 0,4 C 0,0 C -0,6 C 97 % 1034,5 hPa 0,0 l/m 0 min 0 min 0 W/m 3,2 km/h (1 Bft) 95,74 %
01.01.2020 03:32 0,4 C 0,0 C -0,6 C 97 % 1034,4 hPa 0,0 l/m 0 min 0 min 0 W/m 3,2 km/h (1 Bft) 97,87 %
01.01.2020 03:34 0,4 C 0,0 C -0,6 C 97 % 1034,4 hPa 0,0 l/m 0 min 0 min 0 W/m 3,2 km/h (1 Bft) 97,83 %
01.01.2020 03:36 0,4 C 0,0 C -0,6 C 97 % 1034,4 hPa 0,0 l/m 0 min 0 min 0 W/m 6,4 km/h (2 Bft) 95,74 %
01.01.2020 03:38 0,4 C 0,0 C -0,6 C 97 % 1034,4 hPa 0,0 l/m 0 min 0 min 0 W/m 0,0 km/h (0 Bft) 97,87 %
01.01.2020 03:40 0,4 C 0,0 C -0,6 C 97 % 1034,4 hPa 0,0 l/m 0 min 0 min 0 W/m 0,0 km/h (0 Bft) 100,00 %
01.01.2020 03:42 0,4 C 0,0 C -0,6 C 97 % 1034,5 hPa 0,0 l/m 0 min 0 min 0 W/m 0,0 km/h (0 Bft) 100,00 %
01.01.2020 03:44 0,4 C -0,6 C -1,1 C 97 % 1034,4 hPa 0,0 l/m 0 min 0 min 0 W/m 0,0 km/h (0 Bft) 100,00 %
01.01.2020 03:46 0,4 C -0,6 C -1,1 C 97 % 1034,4 hPa 0,0 l/m 0 min 0 min 0 W/m 3,2 km/h (1 Bft) 95,65 %
01.01.2020 03:48 0,4 C -0,6 C -1,1 C 97 % 1034,4 hPa 0,0 l/m 0 min 0 min 0 W/m 0,0 km/h (0 Bft) 100,00 %
01.01.2020 03:50 0,4 C -0,6 C -1,1 C 97 % 1034,3 hPa 0,0 l/m 0 min 0 min 0 W/m 0,0 km/h (0 Bft) 100,00 %
01.01.2020 03:52 0,3 C -0,6 C -1,1 C 97 % 1034,3 hPa 0,0 l/m 0 min 0 min 0 W/m 0,0 km/h (0 Bft) 97,87 %
01.01.2020 03:54 0,3 C -0,6 C -1,1 C 97 % 1034,4 hPa 0,0 l/m 0 min 0 min 0 W/m 0,0 km/h (0 Bft) 100,00 %
01.01.2020 03:56 0,3 C -0,6 C -1,1 C 97 % 1034,3 hPa 0,0 l/m 0 min 0 min 0 W/m 0,0 km/h (0 Bft) 100,00 %
01.01.2020 03:58 0,3 C -0,6 C -1,1 C 97 % 1034,3 hPa 0,0 l/m 0 min 0 min 0 W/m 0,0 km/h (0 Bft) 100,00 %
01.01.2020 04:00 0,3 C -0,6 C -1,1 C 97 % 1034,2 hPa 0,0 l/m 0 min 0 min 0 W/m 0,0 km/h (0 Bft) 100,00 %
01.01.2020 04:02 0,3 C -0,6 C -1,1 C 97 % 1034,2 hPa 0,0 l/m 0 min 0 min 0 W/m 6,4 km/h (2 Bft) 94,12 %
01.01.2020 04:04 0,3 C -0,6 C -1,1 C 97 % 1034,1 hPa 0,0 l/m 0 min 0 min 0 W/m 0,0 km/h (0 Bft) 97,87 %
01.01.2020 04:06 0,3 C -0,6 C -1,1 C 97 % 1034,1 hPa 0,0 l/m 0 min 0 min 0 W/m 0,0 km/h (0 Bft) 100,00 %
01.01.2020 04:08 0,3 C -0,6 C -1,1 C 97 % 1034,1 hPa 0,0 l/m 0 min 0 min 0 W/m 0,0 km/h (0 Bft) 100,00 %
01.01.2020 04:10 0,3 C -0,6 C -1,1 C 97 % 1034,1 hPa 0,0 l/m 0 min 0 min 0 W/m 0,0 km/h (0 Bft) 100,00 %
01.01.2020 04:12 0,3 C -0,6 C -1,1 C 97 % 1034,0 hPa 0,0 l/m 0 min 0 min 0 W/m 0,0 km/h (0 Bft) 100,00 %
01.01.2020 04:14 0,3 C -0,6 C -1,1 C 97 % 1034,0 hPa 0,0 l/m 0 min 0 min 0 W/m 3,2 km/h (1 Bft) 100,00 %
01.01.2020 04:16 0,3 C -0,6 C -1,1 C 97 % 1034,0 hPa 0,0 l/m 0 min 0 min 0 W/m 0,0 km/h (0 Bft) 100,00 %
01.01.2020 04:18 0,3 C -0,6 C -1,1 C 97 % 1034,0 hPa 0,0 l/m 0 min 0 min 0 W/m 0,0 km/h (0 Bft) 97,87 %
01.01.2020 04:20 0,3 C -0,6 C -1,1 C 97 % 1034,0 hPa 0,0 l/m 0 min 0 min 0 W/m 0,0 km/h (0 Bft) 100,00 %
01.01.2020 04:22 0,3 C -0,6 C -1,1 C 97 % 1034,0 hPa 0,0 l/m 0 min 0 min 0 W/m 0,0 km/h (0 Bft) 100,00 %
01.01.2020 04:24 0,2 C -0,6 C -1,1 C 97 % 1034,1 hPa 0,0 l/m 0 min 0 min 0 W/m 0,0 km/h (0 Bft) 100,00 %
01.01.2020 04:26 0,2 C -0,6 C -1,1 C 97 % 1034,0 hPa 0,0 l/m 0 min 0 min 0 W/m 0,0 km/h (0 Bft) 100,00 %
01.01.2020 04:28 0,2 C -0,6 C -1,1 C 97 % 1034,0 hPa 0,0 l/m 0 min 0 min 0 W/m 3,2 km/h (1 Bft) 100,00 %
01.01.2020 04:30 0,2 C -0,6 C -1,1 C 97 % 1033,9 hPa 0,0 l/m 0 min 0 min 0 W/m 0,0 km/h (0 Bft) 100,00 %
01.01.2020 04:32 0,2 C -0,6 C -1,1 C 97 % 1033,9 hPa 0,0 l/m 0 min 0 min 0 W/m 0,0 km/h (0 Bft) 100,00 %
01.01.2020 04:34 0,2 C -0,6 C -1,1 C 97 % 1033,8 hPa 0,0 l/m 0 min 0 min 0 W/m 0,0 km/h (0 Bft) 97,87 %
01.01.2020 04:36 0,2 C -0,6 C -1,1 C 97 % 1033,8 hPa 0,0 l/m 0 min 0 min 0 W/m 3,2 km/h (1 Bft) 97,87 %
01.01.2020 04:38 0,2 C -0,6 C -1,1 C 97 % 1033,8 hPa 0,0 l/m 0 min 0 min 0 W/m 0,0 km/h (0 Bft) 100,00 %
01.01.2020 04:40 0,2 C -0,6 C -1,1 C 97 % 1033,8 hPa 0,0 l/m 0 min 0 min 0 W/m 0,0 km/h (0 Bft) 100,00 %
01.01.2020 04:42 0,2 C -0,6 C -1,1 C 97 % 1033,8 hPa 0,0 l/m 0 min 0 min 0 W/m 0,0 km/h (0 Bft) 97,87 %
01.01.2020 04:44 0,2 C -0,6 C -1,1 C 97 % 1033,8 hPa 0,0 l/m 0 min 0 min 0 W/m 0,0 km/h (0 Bft) 97,83 %
01.01.2020 04:46 0,2 C -0,6 C -1,1 C 97 % 1033,8 hPa 0,0 l/m 0 min 0 min 0 W/m 0,0 km/h (0 Bft) 95,74 %
01.01.2020 04:48 0,2 C -0,6 C -1,1 C 97 % 1033,8 hPa 0,0 l/m 0 min 0 min 0 W/m 0,0 km/h (0 Bft) 100,00 %
01.01.2020 04:50 0,2 C -0,6 C -1,1 C 97 % 1033,8 hPa 0,0 l/m 0 min 0 min 0 W/m 0,0 km/h (0 Bft) 100,00 %
01.01.2020 04:52 0,2 C -0,6 C -1,1 C 97 % 1033,8 hPa 0,0 l/m 0 min 0 min 0 W/m 3,2 km/h (1 Bft) 97,87 %
01.01.2020 04:54 0,1 C -0,6 C -1,1 C 97 % 1033,8 hPa 0,0 l/m 0 min 0 min 0 W/m 0,0 km/h (0 Bft) 97,83 %
01.01.2020 04:56 0,1 C -0,6 C -1,1 C 97 % 1033,8 hPa 0,0 l/m 0 min 0 min 0 W/m 0,0 km/h (0 Bft) 97,87 %
01.01.2020 04:58 0,1 C -0,6 C -1,1 C 97 % 1033,8 hPa 0,0 l/m 0 min 0 min 0 W/m 0,0 km/h (0 Bft) 95,74 %
01.01.2020 05:00 0,1 C -0,6 C -1,1 C 97 % 1033,8 hPa 0,0 l/m 0 min 0 min 0 W/m 0,0 km/h (0 Bft) 97,87 %
01.01.2020 05:02 0,1 C -0,6 C -1,1 C 97 % 1033,7 hPa 0,0 l/m 0 min 0 min 0 W/m 0,0 km/h (0 Bft) 95,74 %
01.01.2020 05:04 0,1 C -0,6 C -1,1 C 97 % 1033,8 hPa 0,0 l/m 0 min 0 min 0 W/m 0,0 km/h (0 Bft) 97,87 %
01.01.2020 05:06 0,1 C -0,6 C -1,1 C 97 % 1033,8 hPa 0,0 l/m 0 min 0 min 0 W/m 0,0 km/h (0 Bft) 97,83 %
01.01.2020 05:08 0,1 C -0,6 C -1,1 C 97 % 1033,8 hPa 0,0 l/m 0 min 0 min 0 W/m 0,0 km/h (0 Bft) 97,87 %
01.01.2020 05:10 0,1 C -0,6 C -1,1 C 97 % 1033,8 hPa 0,0 l/m 0 min 0 min 0 W/m 0,0 km/h (0 Bft) 97,87 %
01.01.2020 05:12 0,1 C -0,6 C -1,1 C 97 % 1033,8 hPa 0,0 l/m 0 min 0 min 0 W/m 0,0 km/h (0 Bft) 97,87 %
01.01.2020 05:14 0,1 C -0,6 C -1,1 C 97 % 1033,8 hPa 0,0 l/m 0 min 0 min 0 W/m 0,0 km/h (0 Bft) 97,87 %
01.01.2020 05:16 0,1 C -0,6 C -1,1 C 97 % 1033,8 hPa 0,0 l/m 0 min 0 min 0 W/m 0,0 km/h (0 Bft) 95,74 %
01.01.2020 05:18 0,1 C -0,6 C -1,1 C 97 % 1033,7 hPa 0,0 l/m 0 min 0 min 0 W/m 0,0 km/h (0 Bft) 61,70 %
01.01.2020 05:20 0,1 C -0,6 C -1,1 C 97 % 1033,6 hPa 0,0 l/m 0 min 0 min 0 W/m 0,0 km/h (0 Bft) 91,30 %
01.01.2020 05:22 0,1 C -0,6 C -1,7 C 97 % 1033,6 hPa 0,0 l/m 0 min 0 min 0 W/m 0,0 km/h (0 Bft) 97,87 %
01.01.2020 05:24 0,1 C -0,6 C -1,1 C 97 % 1033,6 hPa 0,0 l/m 0 min 0 min 0 W/m 0,0 km/h (0 Bft) 97,87 %
01.01.2020 05:26 0,0 C -0,6 C -1,1 C 97 % 1033,7 hPa 0,0 l/m 0 min 0 min 0 W/m 0,0 km/h (0 Bft) 95,74 %
01.01.2020 05:28 0,0 C -0,6 C -1,1 C 97 % 1033,7 hPa 0,0 l/m 0 min 0 min 0 W/m 3,2 km/h (1 Bft) 95,74 %
01.01.2020 05:30 0,0 C -0,6 C -1,1 C 96 % 1033,6 hPa 0,0 l/m 0 min 0 min 0 W/m 0,0 km/h (0 Bft) 93,48 %
01.01.2020 05:32 0,0 C -0,6 C -1,1 C 96 % 1033,6 hPa 0,0 l/m 0 min 0 min 0 W/m 0,0 km/h (0 Bft) 95,74 %
01.01.2020 05:34 0,1 C -0,6 C -1,1 C 96 % 1033,6 hPa 0,0 l/m 0 min 0 min 0 W/m 0,0 km/h (0 Bft) 93,62 %
01.01.2020 05:36 0,0 C -0,6 C -1,1 C 96 % 1033,6 hPa 0,0 l/m 0 min 0 min 0 W/m 0,0 km/h (0 Bft) 93,62 %
01.01.2020 05:38 0,0 C -0,6 C -1,1 C 96 % 1033,6 hPa 0,0 l/m 0 min 0 min 0 W/m 0,0 km/h (0 Bft) 93,62 %
01.01.2020 05:40 0,0 C -0,6 C -1,1 C 96 % 1033,5 hPa 0,0 l/m 0 min 0 min 0 W/m 3,2 km/h (1 Bft) 93,62 %
01.01.2020 05:42 0,0 C -0,6 C -1,1 C 96 % 1033,5 hPa 0,0 l/m 0 min 0 min 0 W/m 0,0 km/h (0 Bft) 95,65 %
01.01.2020 05:44 0,0 C -0,6 C -1,1 C 96 % 1033,5 hPa 0,0 l/m 0 min 0 min 0 W/m 0,0 km/h (0 Bft) 95,74 %
01.01.2020 05:46 0,0 C -0,6 C -1,1 C 96 % 1033,5 hPa 0,0 l/m 0 min 0 min 0 W/m 6,4 km/h (2 Bft) 95,74 %
01.01.2020 05:48 0,0 C -0,6 C -1,1 C 96 % 1033,5 hPa 0,0 l/m 0 min 0 min 0 W/m 6,4 km/h (2 Bft) 93,62 %
01.01.2020 05:50 0,0 C -0,6 C -1,1 C 96 % 1033,4 hPa 0,0 l/m 0 min 0 min 0 W/m 6,4 km/h (2 Bft) 97,87 %
01.01.2020 05:52 0,0 C -0,6 C -1,1 C 96 % 1033,5 hPa 0,0 l/m 0 min 0 min 0 W/m 0,0 km/h (0 Bft) 95,74 %
01.01.2020 05:54 0,0 C -0,6 C -1,1 C 96 % 1033,4 hPa 0,0 l/m 0 min 0 min 0 W/m 0,0 km/h (0 Bft) 95,65 %
01.01.2020 05:56 0,0 C -0,6 C -1,1 C 96 % 1033,4 hPa 0,0 l/m 0 min 0 min 0 W/m 0,0 km/h (0 Bft) 95,74 %
01.01.2020 05:58 0,0 C -0,6 C -1,1 C 96 % 1033,3 hPa 0,0 l/m 0 min 0 min 0 W/m 3,2 km/h (1 Bft) 95,74 %
01.01.2020 06:00 -0,1 C -0,6 C -1,1 C 96 % 1033,3 hPa 0,0 l/m 0 min 0 min 0 W/m 6,4 km/h (2 Bft) 95,74 %
01.01.2020 06:02 0,0 C -0,6 C -1,1 C 96 % 1033,3 hPa 0,0 l/m 0 min 0 min 0 W/m 12,9 km/h (3 Bft) 95,74 %
01.01.2020 06:04 -0,1 C -0,6 C -1,1 C 96 % 1033,3 hPa 0,0 l/m 0 min 0 min 0 W/m 12,9 km/h (3 Bft) 95,65 %
01.01.2020 06:06 -0,1 C -0,6 C -1,1 C 96 % 1033,3 hPa 0,0 l/m 0 min 0 min 0 W/m 6,4 km/h (2 Bft) 95,74 %
01.01.2020 06:08 -0,1 C -0,6 C -1,1 C 96 % 1033,4 hPa 0,0 l/m 0 min 0 min 0 W/m 3,2 km/h (1 Bft) 97,87 %
01.01.2020 06:10 -0,1 C -0,6 C -1,7 C 96 % 1033,4 hPa 0,0 l/m 0 min 0 min 0 W/m 3,2 km/h (1 Bft) 95,74 %
01.01.2020 06:12 -0,1 C -1,1 C -1,7 C 96 % 1033,3 hPa 0,0 l/m 0 min 0 min 0 W/m 3,2 km/h (1 Bft) 95,74 %
01.01.2020 06:14 -0,1 C -0,6 C -1,7 C 96 % 1033,4 hPa 0,0 l/m 0 min 0 min 0 W/m 3,2 km/h (1 Bft) 93,62 %
01.01.2020 06:16 -0,1 C -1,1 C -1,7 C 96 % 1033,4 hPa 0,0 l/m 0 min 0 min 0 W/m 0,0 km/h (0 Bft) 95,65 %
01.01.2020 06:18 -0,1 C -1,1 C -1,7 C 96 % 1033,4 hPa 0,0 l/m 0 min 0 min 0 W/m 3,2 km/h (1 Bft) 95,74 %
01.01.2020 06:20 -0,1 C -1,1 C -1,7 C 96 % 1033,4 hPa 0,0 l/m 0 min 0 min 0 W/m 3,2 km/h (1 Bft) 97,87 %
01.01.2020 06:22 -0,1 C -1,1 C -1,7 C 96 % 1033,4 hPa 0,0 l/m 0 min 0 min 0 W/m 0,0 km/h (0 Bft) 97,87 %
01.01.2020 06:24 -0,2 C -1,1 C -1,7 C 96 % 1033,4 hPa 0,0 l/m 0 min 0 min 0 W/m 0,0 km/h (0 Bft) 97,87 %
01.01.2020 06:26 -0,2 C -1,1 C -1,7 C 96 % 1033,4 hPa 0,0 l/m 0 min 0 min 0 W/m 0,0 km/h (0 Bft) 95,74 %
01.01.2020 06:28 -0,2 C -1,1 C -1,7 C 96 % 1033,3 hPa 0,0 l/m 0 min 0 min 0 W/m 6,4 km/h (2 Bft) 100,00 %
01.01.2020 06:30 -0,2 C -1,1 C -1,7 C 96 % 1033,3 hPa 0,0 l/m 0 min 0 min 0 W/m 12,9 km/h (3 Bft) 100,00 %
01.01.2020 06:32 -0,2 C -1,1 C -1,7 C 96 % 1033,3 hPa 0,0 l/m 0 min 0 min 0 W/m 12,9 km/h (3 Bft) 100,00 %
01.01.2020 06:34 -0,2 C -1,1 C -1,7 C 96 % 1033,3 hPa 0,0 l/m 0 min 0 min 0 W/m 3,2 km/h (1 Bft) 100,00 %
01.01.2020 06:36 -0,2 C -1,1 C -1,7 C 96 % 1033,4 hPa 0,0 l/m 0 min 0 min 0 W/m 6,4 km/h (2 Bft) 97,87 %
01.01.2020 06:38 -0,2 C -1,1 C -1,7 C 96 % 1033,3 hPa 0,0 l/m 0 min 0 min 0 W/m 6,4 km/h (2 Bft) 100,00 %
01.01.2020 06:40 -0,2 C -1,1 C -1,7 C 96 % 1033,3 hPa 0,0 l/m 0 min 0 min 0 W/m 6,4 km/h (2 Bft) 97,83 %
01.01.2020 06:42 -0,2 C -1,1 C -1,7 C 96 % 1033,3 hPa 0,0 l/m 0 min 0 min 0 W/m 6,4 km/h (2 Bft) 100,00 %
01.01.2020 06:44 -0,2 C -1,1 C -1,7 C 96 % 1033,3 hPa 0,0 l/m 0 min 0 min 0 W/m 0,0 km/h (0 Bft) 100,00 %
01.01.2020 06:46 -0,2 C -1,1 C -1,7 C 96 % 1033,4 hPa 0,0 l/m 0 min 0 min 0 W/m 3,2 km/h (1 Bft) 95,74 %
01.01.2020 06:48 -0,2 C -1,1 C -1,7 C 96 % 1033,4 hPa 0,0 l/m 0 min 0 min 0 W/m 3,2 km/h (1 Bft) 100,00 %
01.01.2020 06:50 -0,2 C -1,1 C -1,7 C 96 % 1033,4 hPa 0,0 l/m 0 min 0 min 0 W/m 6,4 km/h (2 Bft) 100,00 %
01.01.2020 06:52 -0,3 C -1,1 C -1,7 C 96 % 1033,4 hPa 0,0 l/m 0 min 0 min 0 W/m 3,2 km/h (1 Bft) 100,00 %
01.01.2020 06:54 -0,3 C -1,1 C -1,7 C 96 % 1033,4 hPa 0,0 l/m 0 min 0 min 0 W/m 0,0 km/h (0 Bft) 100,00 %
01.01.2020 06:56 -0,3 C -1,1 C -1,7 C 96 % 1033,3 hPa 0,0 l/m 0 min 0 min 0 W/m 3,2 km/h (1 Bft) 100,00 %
01.01.2020 06:58 -0,3 C -1,1 C -1,7 C 96 % 1033,4 hPa 0,0 l/m 0 min 0 min 0 W/m 6,4 km/h (2 Bft) 100,00 %
01.01.2020 07:00 -0,3 C -1,1 C -1,7 C 96 % 1033,3 hPa 0,0 l/m 0 min 0 min 0 W/m 6,4 km/h (2 Bft) 100,00 %
01.01.2020 07:02 -0,3 C -1,1 C -1,7 C 96 % 1033,4 hPa 0,0 l/m 0 min 0 min 0 W/m 6,4 km/h (2 Bft) 97,87 %
01.01.2020 07:04 -0,3 C -1,1 C -1,7 C 96 % 1033,4 hPa 0,0 l/m 0 min 0 min 0 W/m 12,9 km/h (3 Bft) 100,00 %
01.01.2020 07:06 -0,3 C -1,1 C -1,7 C 96 % 1033,4 hPa 0,0 l/m 0 min 0 min 0 W/m 6,4 km/h (2 Bft) 100,00 %
01.01.2020 07:08 -0,3 C -1,1 C -1,7 C 96 % 1033,4 hPa 0,0 l/m 0 min 0 min 0 W/m 3,2 km/h (1 Bft) 100,00 %
01.01.2020 07:10 -0,3 C -1,1 C -1,7 C 96 % 1033,3 hPa 0,0 l/m 0 min 0 min 0 W/m 6,4 km/h (2 Bft) 100,00 %
01.01.2020 07:12 -0,3 C -1,1 C -1,7 C 96 % 1033,3 hPa 0,0 l/m 0 min 0 min 0 W/m 6,4 km/h (2 Bft) 100,00 %
01.01.2020 07:14 -0,3 C -1,1 C -1,7 C 96 % 1033,3 hPa 0,0 l/m 0 min 0 min 0 W/m 16,1 km/h (3 Bft) 100,00 %
01.01.2020 07:16 -0,3 C -1,1 C -1,7 C 96 % 1033,3 hPa 0,0 l/m 0 min 0 min 0 W/m 6,4 km/h (2 Bft) 100,00 %
01.01.2020 07:18 -0,3 C -1,1 C -1,7 C 96 % 1033,3 hPa 0,0 l/m 0 min 0 min 0 W/m 12,9 km/h (3 Bft) 100,00 %
01.01.2020 07:20 -0,3 C -1,1 C -1,7 C 96 % 1033,3 hPa 0,0 l/m 0 min 0 min 0 W/m 3,2 km/h (1 Bft) 100,00 %
01.01.2020 07:22 -0,3 C -1,1 C -1,7 C 96 % 1033,3 hPa 0,0 l/m 0 min 0 min 0 W/m 6,4 km/h (2 Bft) 100,00 %
01.01.2020 07:24 -0,3 C -1,1 C -1,7 C 96 % 1033,3 hPa 0,0 l/m 0 min 0 min 0 W/m 0,0 km/h (0 Bft) 100,00 %
01.01.2020 07:26 -0,3 C -1,1 C -1,7 C 96 % 1033,3 hPa 0,0 l/m 0 min 0 min 0 W/m 0,0 km/h (0 Bft) 100,00 %
01.01.2020 07:28 -0,3 C -1,1 C -1,7 C 96 % 1033,3 hPa 0,0 l/m 0 min 0 min 0 W/m 12,9 km/h (3 Bft) 100,00 %
01.01.2020 07:30 -0,3 C -1,1 C -1,7 C 96 % 1033,3 hPa 0,0 l/m 0 min 0 min 0 W/m 3,2 km/h (1 Bft) 97,87 %
01.01.2020 07:32 -0,3 C -1,1 C -1,7 C 96 % 1033,3 hPa 0,0 l/m 0 min 0 min 0 W/m 6,4 km/h (2 Bft) 100,00 %
01.01.2020 07:34 -0,3 C -1,1 C -1,7 C 96 % 1033,3 hPa 0,0 l/m 0 min 0 min 0 W/m 16,1 km/h (3 Bft) 100,00 %
01.01.2020 07:36 -0,3 C -1,1 C -1,7 C 96 % 1033,2 hPa 0,0 l/m 0 min 0 min 0 W/m 3,2 km/h (1 Bft) 100,00 %
01.01.2020 07:38 -0,3 C -1,1 C -1,7 C 96 % 1033,2 hPa 0,0 l/m 0 min 0 min 0 W/m 6,4 km/h (2 Bft) 97,83 %
01.01.2020 07:40 -0,3 C -1,1 C -1,7 C 96 % 1033,2 hPa 0,0 l/m 0 min 0 min 0 W/m 6,4 km/h (2 Bft) 97,87 %
01.01.2020 07:42 -0,3 C -1,1 C -1,7 C 96 % 1033,2 hPa 0,0 l/m 0 min 0 min 0 W/m 12,9 km/h (3 Bft) 97,87 %
01.01.2020 07:44 -0,3 C -1,1 C -1,7 C 96 % 1033,3 hPa 0,0 l/m 0 min 0 min 0 W/m 12,9 km/h (3 Bft) 97,87 %
01.01.2020 07:46 -0,3 C -1,1 C -1,7 C 96 % 1033,3 hPa 0,0 l/m 0 min 0 min 0 W/m 16,1 km/h (3 Bft) 95,74 %
01.01.2020 07:48 -0,3 C -1,1 C -1,7 C 96 % 1033,3 hPa 0,0 l/m 0 min 0 min 0 W/m 16,1 km/h (3 Bft) 97,87 %
01.01.2020 07:50 -0,3 C -1,1 C -1,7 C 96 % 1033,3 hPa 0,0 l/m 0 min 0 min 0 W/m 6,4 km/h (2 Bft) 95,65 %
01.01.2020 07:52 -0,3 C -0,6 C -1,7 C 96 % 1033,3 hPa 0,0 l/m 0 min 0 min 0 W/m 16,1 km/h (3 Bft) 95,74 %
01.01.2020 07:54 -0,3 C -0,6 C -1,7 C 96 % 1033,3 hPa 0,0 l/m 0 min 0 min 0 W/m 19,3 km/h (3 Bft) 97,87 %
01.01.2020 07:56 -0,2 C -0,6 C -1,7 C 96 % 1033,3 hPa 0,0 l/m 0 min 0 min 0 W/m 6,4 km/h (2 Bft) 97,87 %
01.01.2020 07:58 -0,2 C -1,1 C -1,7 C 96 % 1033,3 hPa 0,0 l/m 0 min 0 min 0 W/m 12,9 km/h (3 Bft) 97,87 %
01.01.2020 08:00 -0,2 C -1,1 C -1,7 C 96 % 1033,3 hPa 0,0 l/m 0 min 0 min 0 W/m 6,4 km/h (2 Bft) 97,83 %
01.01.2020 08:02 -0,2 C -1,1 C -1,7 C 96 % 1033,4 hPa 0,0 l/m 0 min 0 min 0 W/m 16,1 km/h (3 Bft) 97,87 %
01.01.2020 08:04 -0,2 C -1,1 C -1,7 C 96 % 1033,4 hPa 0,0 l/m 0 min 0 min 0 W/m 12,9 km/h (3 Bft) 97,87 %
01.01.2020 08:06 -0,2 C -1,1 C -1,7 C 96 % 1033,4 hPa 0,0 l/m 0 min 0 min 0 W/m 6,4 km/h (2 Bft) 97,87 %
01.01.2020 08:08 -0,2 C -1,1 C -1,7 C 96 % 1033,4 hPa 0,0 l/m 0 min 0 min 0 W/m 19,3 km/h (3 Bft) 95,74 %
01.01.2020 08:10 -0,2 C -1,1 C -1,7 C 96 % 1033,4 hPa 0,0 l/m 0 min 0 min 0 W/m 16,1 km/h (3 Bft) 97,87 %
01.01.2020 08:12 -0,2 C -1,1 C -1,7 C 96 % 1033,4 hPa 0,0 l/m 0 min 0 min 0 W/m 12,9 km/h (3 Bft) 95,65 %
01.01.2020 08:14 -0,2 C -1,1 C -1,7 C 96 % 1033,5 hPa 0,0 l/m 0 min 0 min 0 W/m 6,4 km/h (2 Bft) 95,74 %
01.01.2020 08:16 -0,3 C -1,1 C -1,7 C 96 % 1033,5 hPa 0,0 l/m 0 min 0 min 0 W/m 19,3 km/h (3 Bft) 91,49 %
01.01.2020 08:18 -0,3 C -1,1 C -1,7 C 96 % 1033,5 hPa 0,0 l/m 0 min 0 min 0 W/m 3,2 km/h (1 Bft) 95,74 %
01.01.2020 08:20 -0,3 C -1,1 C -1,7 C 96 % 1033,4 hPa 0,0 l/m 0 min 0 min 0 W/m 3,2 km/h (1 Bft) 95,74 %
01.01.2020 08:22 -0,3 C -1,1 C -1,7 C 96 % 1033,5 hPa 0,0 l/m 0 min 0 min 0 W/m 12,9 km/h (3 Bft) 93,62 %
01.01.2020 08:24 -0,3 C -1,1 C -1,7 C 96 % 1033,5 hPa 0,0 l/m 0 min 0 min 0 W/m 12,9 km/h (3 Bft) 93,48 %
01.01.2020 08:26 -0,3 C -1,1 C -1,7 C 96 % 1033,5 hPa 0,0 l/m 0 min 0 min 0 W/m 12,9 km/h (3 Bft) 95,74 %
01.01.2020 08:28 -0,3 C -1,1 C -1,7 C 96 % 1033,5 hPa 0,0 l/m 0 min 0 min 0 W/m 19,3 km/h (3 Bft) 95,74 %
01.01.2020 08:30 -0,3 C -1,1 C -1,7 C 96 % 1033,5 hPa 0,0 l/m 0 min 0 min 0 W/m 16,1 km/h (3 Bft) 95,74 %
01.01.2020 08:32 -0,3 C -1,1 C -1,7 C 96 % 1033,5 hPa 0,0 l/m 0 min 0 min 0 W/m 16,1 km/h (3 Bft) 95,74 %
01.01.2020 08:34 -0,3 C -1,1 C -1,7 C 96 % 1033,4 hPa 0,0 l/m 0 min 0 min 0 W/m 16,1 km/h (3 Bft) 95,65 %
01.01.2020 08:36 -0,3 C -1,1 C -1,7 C 96 % 1033,4 hPa 0,0 l/m 0 min 0 min 0 W/m 12,9 km/h (3 Bft) 95,74 %
01.01.2020 08:38 -0,3 C -1,1 C -1,7 C 96 % 1033,5 hPa 0,0 l/m 0 min 0 min 0 W/m 12,9 km/h (3 Bft) 95,74 %
01.01.2020 08:40 -0,3 C -1,1 C -1,7 C 96 % 1033,5 hPa 0,0 l/m 0 min 0 min 3 W/m 16,1 km/h (3 Bft) 97,87 %
01.01.2020 08:42 -0,3 C -1,1 C -1,7 C 96 % 1033,5 hPa 0,0 l/m 0 min 0 min 5 W/m 6,4 km/h (2 Bft) 91,49 %
01.01.2020 08:44 -0,3 C -1,1 C -1,7 C 96 % 1033,5 hPa 0,0 l/m 0 min 0 min 5 W/m 12,9 km/h (3 Bft) 97,87 %
01.01.2020 08:46 -0,3 C -1,1 C -1,7 C 96 % 1033,5 hPa 0,0 l/m 0 min 0 min 7 W/m 6,4 km/h (2 Bft) 95,65 %
01.01.2020 08:48 -0,3 C -1,1 C -1,7 C 96 % 1033,6 hPa 0,0 l/m 0 min 0 min 7 W/m 6,4 km/h (2 Bft) 97,87 %
01.01.2020 08:50 -0,3 C -1,1 C -1,7 C 96 % 1033,5 hPa 0,0 l/m 0 min 0 min 9 W/m 12,9 km/h (3 Bft) 95,74 %
01.01.2020 08:52 -0,3 C -1,1 C -1,7 C 96 % 1033,5 hPa 0,0 l/m 0 min 0 min 9 W/m 6,4 km/h (2 Bft) 87,23 %
01.01.2020 08:54 -0,3 C -1,1 C -1,7 C 96 % 1033,5 hPa 0,0 l/m 0 min 0 min 10 W/m 6,4 km/h (2 Bft) 62,79 %
01.01.2020 08:56 -0,3 C -1,1 C -1,7 C 96 % 1033,5 hPa 0,0 l/m 0 min 0 min 11 W/m 12,9 km/h (3 Bft) 95,74 %
01.01.2020 08:58 -0,3 C -1,1 C -1,7 C 96 % 1033,6 hPa 0,0 l/m 0 min 0 min 12 W/m 12,9 km/h (3 Bft) 97,83 %
01.01.2020 09:00 -0,3 C -1,1 C -1,7 C 96 % 1033,6 hPa 0,0 l/m 0 min 0 min 12 W/m 16,1 km/h (3 Bft) 97,87 %
01.01.2020 09:02 -0,3 C -1,1 C -1,7 C 96 % 1033,6 hPa 0,0 l/m 0 min 0 min 14 W/m 16,1 km/h (3 Bft) 95,74 %
01.01.2020 09:04 -0,3 C -0,6 C -1,7 C 96 % 1033,6 hPa 0,0 l/m 0 min 0 min 14 W/m 22,5 km/h (4 Bft) 97,87 %
01.01.2020 09:06 -0,3 C -0,6 C -1,7 C 96 % 1033,6 hPa 0,0 l/m 0 min 0 min 14 W/m 16,1 km/h (3 Bft) 97,87 %
01.01.2020 09:08 -0,3 C -0,6 C -1,7 C 96 % 1033,6 hPa 0,0 l/m 0 min 0 min 14 W/m 22,5 km/h (4 Bft) 95,74 %
01.01.2020 09:10 -0,3 C -0,6 C -1,1 C 96 % 1033,6 hPa 0,0 l/m 0 min 0 min 14 W/m 16,1 km/h (3 Bft) 97,83 %
01.01.2020 09:12 -0,3 C -0,6 C -1,7 C 96 % 1033,6 hPa 0,0 l/m 0 min 0 min 16 W/m 6,4 km/h (2 Bft) 95,74 %
01.01.2020 09:14 -0,3 C -0,6 C -1,7 C 96 % 1033,6 hPa 0,0 l/m 0 min 0 min 17 W/m 16,1 km/h (3 Bft) 97,87 %
01.01.2020 09:16 -0,3 C -0,6 C -1,7 C 96 % 1033,6 hPa 0,0 l/m 0 min 0 min 18 W/m 12,9 km/h (3 Bft) 97,87 %
01.01.2020 09:18 -0,3 C -0,6 C -1,1 C 96 % 1033,6 hPa 0,0 l/m 0 min 0 min 19 W/m 12,9 km/h (3 Bft) 95,74 %
01.01.2020 09:20 -0,3 C -0,6 C -1,1 C 96 % 1033,5 hPa 0,0 l/m 0 min 0 min 19 W/m 6,4 km/h (2 Bft) 97,87 %
01.01.2020 09:22 -0,3 C -0,6 C -1,1 C 96 % 1033,6 hPa 0,0 l/m 0 min 0 min 20 W/m 19,3 km/h (3 Bft) 97,83 %
01.01.2020 09:24 -0,2 C -0,6 C -1,1 C 96 % 1033,6 hPa 0,0 l/m 0 min 0 min 23 W/m 16,1 km/h (3 Bft) 97,87 %
01.01.2020 09:26 -0,2 C -0,6 C -1,1 C 96 % 1033,6 hPa 0,0 l/m 0 min 0 min 24 W/m 19,3 km/h (3 Bft) 95,74 %
01.01.2020 09:28 -0,2 C -0,6 C -1,1 C 96 % 1033,6 hPa 0,0 l/m 0 min 0 min 28 W/m 22,5 km/h (4 Bft) 97,87 %
01.01.2020 09:30 -0,2 C -0,6 C -1,1 C 96 % 1033,5 hPa 0,0 l/m 0 min 0 min 32 W/m 16,1 km/h (3 Bft) 97,87 %
01.01.2020 09:32 -0,2 C -0,6 C -1,1 C 96 % 1033,6 hPa 0,0 l/m 0 min 0 min 32 W/m 12,9 km/h (3 Bft) 95,65 %
01.01.2020 09:34 -0,2 C -0,6 C -1,1 C 96 % 1033,5 hPa 0,0 l/m 0 min 0 min 32 W/m 19,3 km/h (3 Bft) 97,87 %
01.01.2020 09:36 -0,2 C -0,6 C -1,1 C 96 % 1033,6 hPa 0,0 l/m 0 min 0 min 32 W/m 16,1 km/h (3 Bft) 95,74 %
01.01.2020 09:38 -0,2 C -0,6 C -1,1 C 96 % 1033,6 hPa 0,0 l/m 0 min 0 min 35 W/m 19,3 km/h (3 Bft) 95,74 %
01.01.2020 09:40 -0,1 C -0,6 C -1,1 C 96 % 1033,6 hPa 0,0 l/m 0 min 0 min 36 W/m 16,1 km/h (3 Bft) 95,74 %
01.01.2020 09:42 -0,1 C 0,0 C -1,1 C 96 % 1033,6 hPa 0,0 l/m 0 min 0 min 39 W/m 16,1 km/h (3 Bft) 97,87 %
01.01.2020 09:44 -0,1 C 0,0 C -1,1 C 96 % 1033,6 hPa 0,0 l/m 0 min 0 min 39 W/m 16,1 km/h (3 Bft) 97,87 %
01.01.2020 09:46 -0,1 C 0,0 C -1,1 C 96 % 1033,6 hPa 0,0 l/m 0 min 0 min 40 W/m 25,7 km/h (4 Bft) 97,87 %
01.01.2020 09:48 -0,1 C 0,0 C -1,1 C 96 % 1033,6 hPa 0,0 l/m 0 min 0 min 42 W/m 19,3 km/h (3 Bft) 97,87 %
01.01.2020 09:50 -0,1 C 0,0 C -1,1 C 96 % 1033,6 hPa 0,0 l/m 0 min 0 min 46 W/m 16,1 km/h (3 Bft) 97,87 %
01.01.2020 09:52 -0,1 C 0,0 C -1,1 C 96 % 1033,6 hPa 0,0 l/m 0 min 0 min 52 W/m 22,5 km/h (4 Bft) 97,87 %
01.01.2020 09:54 -0,1 C 0,0 C -1,1 C 96 % 1033,6 hPa 0,0 l/m 0 min 0 min 53 W/m 16,1 km/h (3 Bft) 97,87 %
01.01.2020 09:56 0,0 C 0,0 C -1,1 C 96 % 1033,6 hPa 0,0 l/m 0 min 0 min 55 W/m 22,5 km/h (4 Bft) 97,83 %
01.01.2020 09:58 0,0 C 0,0 C -1,1 C 96 % 1033,5 hPa 0,0 l/m 0 min 0 min 60 W/m 16,1 km/h (3 Bft) 97,87 %
01.01.2020 10:00 0,0 C 0,0 C -1,1 C 96 % 1033,5 hPa 0,0 l/m 0 min 0 min 53 W/m 19,3 km/h (3 Bft) 97,87 %
01.01.2020 10:02 0,0 C 0,0 C -1,1 C 96 % 1033,5 hPa 0,0 l/m 0 min 0 min 57 W/m 16,1 km/h (3 Bft) 97,87 %
01.01.2020 10:04 0,0 C 0,0 C -1,1 C 96 % 1033,5 hPa 0,0 l/m 0 min 0 min 67 W/m 19,3 km/h (3 Bft) 100,00 %
01.01.2020 10:06 0,1 C 0,0 C -0,6 C 96 % 1033,6 hPa 0,0 l/m 0 min 0 min 72 W/m 16,1 km/h (3 Bft) 100,00 %
01.01.2020 10:08 0,1 C 0,0 C -0,6 C 96 % 1033,6 hPa 0,0 l/m 0 min 0 min 75 W/m 12,9 km/h (3 Bft) 97,83 %
01.01.2020 10:10 0,1 C 0,0 C -0,6 C 96 % 1033,6 hPa 0,0 l/m 0 min 0 min 84 W/m 12,9 km/h (3 Bft) 97,87 %
01.01.2020 10:12 0,1 C 0,0 C -0,6 C 96 % 1033,6 hPa 0,0 l/m 2 min 0 min 91 W/m 12,9 km/h (3 Bft) 97,87 %
01.01.2020 10:14 0,1 C 0,6 C -0,6 C 96 % 1033,7 hPa 0,0 l/m 0 min 0 min 86 W/m 6,4 km/h (2 Bft) 100,00 %
01.01.2020 10:16 0,1 C 1,1 C -0,6 C 96 % 1033,6 hPa 0,0 l/m 2 min 0 min 94 W/m 22,5 km/h (4 Bft) 95,74 %
01.01.2020 10:18 0,1 C 1,1 C -0,6 C 96 % 1033,7 hPa 0,0 l/m 2 min 0 min 108 W/m 22,5 km/h (4 Bft) 100,00 %
01.01.2020 10:20 0,2 C 1,1 C -0,6 C 96 % 1033,7 hPa 0,0 l/m 2 min 0 min 109 W/m 12,9 km/h (3 Bft) 97,83 %
01.01.2020 10:22 0,2 C 1,7 C -0,6 C 96 % 1033,7 hPa 0,0 l/m 2 min 0 min 113 W/m 3,2 km/h (1 Bft) 97,87 %
01.01.2020 10:24 0,2 C 1,7 C -0,6 C 96 % 1033,7 hPa 0,0 l/m 2 min 0 min 107 W/m 16,1 km/h (3 Bft) 97,87 %
01.01.2020 10:26 0,2 C 1,7 C -0,6 C 96 % 1033,7 hPa 0,0 l/m 2 min 0 min 128 W/m 19,3 km/h (3 Bft) 100,00 %
01.01.2020 10:28 0,3 C 2,2 C -0,6 C 96 % 1033,7 hPa 0,0 l/m 2 min 0 min 140 W/m 16,1 km/h (3 Bft) 100,00 %
01.01.2020 10:30 0,3 C 2,2 C -0,6 C 96 % 1033,8 hPa 0,0 l/m 2 min 0 min 143 W/m 12,9 km/h (3 Bft) 100,00 %
01.01.2020 10:32 0,3 C 2,2 C -0,6 C 96 % 1033,7 hPa 0,0 l/m 2 min 0 min 160 W/m 12,9 km/h (3 Bft) 100,00 %
01.01.2020 10:34 0,4 C 2,2 C -0,6 C 96 % 1033,8 hPa 0,0 l/m 2 min 0 min 160 W/m 19,3 km/h (3 Bft) 97,87 %
01.01.2020 10:36 0,4 C 2,2 C -0,6 C 96 % 1033,7 hPa 0,2 l/m 2 min 0 min 145 W/m 19,3 km/h (3 Bft) 100,00 %
01.01.2020 10:38 0,5 C 2,2 C -0,6 C 96 % 1033,8 hPa 0,0 l/m 2 min 0 min 113 W/m 16,1 km/h (3 Bft) 100,00 %
01.01.2020 10:40 0,6 C 2,2 C -0,6 C 96 % 1033,8 hPa 0,0 l/m 0 min 0 min 111 W/m 16,1 km/h (3 Bft) 97,87 %
01.01.2020 10:42 0,6 C 2,8 C -0,6 C 96 % 1033,7 hPa 0,0 l/m 2 min 0 min 149 W/m 6,4 km/h (2 Bft) 93,48 %
01.01.2020 10:44 0,6 C 2,2 C -0,6 C 96 % 1033,8 hPa 0,0 l/m 0 min 0 min 113 W/m 12,9 km/h (3 Bft) 95,74 %
01.01.2020 10:46 0,6 C 1,7 C -0,6 C 96 % 1033,8 hPa 0,0 l/m 0 min 0 min 101 W/m 19,3 km/h (3 Bft) 95,74 %
01.01.2020 10:48 0,6 C 1,7 C 0,0 C 96 % 1033,7 hPa 0,0 l/m 2 min 0 min 149 W/m 22,5 km/h (4 Bft) 95,74 %
01.01.2020 10:50 0,6 C 1,7 C 0,0 C 96 % 1033,7 hPa 0,0 l/m 0 min 0 min 89 W/m 22,5 km/h (4 Bft) 97,87 %
01.01.2020 10:52 0,6 C 1,1 C 0,0 C 96 % 1033,7 hPa 0,0 l/m 0 min 0 min 106 W/m 12,9 km/h (3 Bft) 93,62 %
01.01.2020 10:54 0,7 C 1,1 C 0,0 C 96 % 1033,7 hPa 0,0 l/m 0 min 0 min 92 W/m 25,7 km/h (4 Bft) 95,65 %
01.01.2020 10:56 0,6 C 1,1 C 0,0 C 96 % 1033,7 hPa 0,0 l/m 0 min 0 min 105 W/m 19,3 km/h (3 Bft) 97,87 %
01.01.2020 10:58 0,7 C 1,1 C 0,0 C 96 % 1033,8 hPa 0,0 l/m 0 min 0 min 102 W/m 25,7 km/h (4 Bft) 97,87 %
01.01.2020 11:00 0,7 C 1,1 C 0,0 C 96 % 1033,8 hPa 0,0 l/m 0 min 0 min 103 W/m 25,7 km/h (4 Bft) 93,62 %
01.01.2020 11:02 0,8 C 1,1 C 0,0 C 96 % 1033,7 hPa 0,0 l/m 0 min 0 min 112 W/m 22,5 km/h (4 Bft) 95,74 %
01.01.2020 11:04 0,8 C 1,1 C 0,0 C 96 % 1033,7 hPa 0,0 l/m 0 min 0 min 116 W/m 19,3 km/h (3 Bft) 93,62 %
01.01.2020 11:06 0,8 C 1,1 C 0,0 C 96 % 1033,7 hPa 0,0 l/m 0 min 0 min 118 W/m 19,3 km/h (3 Bft) 97,83 %
01.01.2020 11:08 0,8 C 1,1 C 0,6 C 96 % 1033,6 hPa 0,0 l/m 0 min 0 min 125 W/m 22,5 km/h (4 Bft) 95,74 %
01.01.2020 11:10 0,8 C 1,1 C 0,6 C 96 % 1033,6 hPa 0,0 l/m 0 min 0 min 120 W/m 19,3 km/h (3 Bft) 95,92 %
01.01.2020 11:12 0,8 C 1,7 C 0,6 C 96 % 1033,6 hPa 0,0 l/m 0 min 0 min 125 W/m 19,3 km/h (3 Bft) 95,65 %
01.01.2020 11:14 0,9 C 1,7 C 0,6 C 96 % 1033,6 hPa 0,0 l/m 0 min 0 min 129 W/m 29,0 km/h (5 Bft) 95,74 %
01.01.2020 11:16 0,9 C 1,1 C 0,6 C 96 % 1033,6 hPa 0,0 l/m 0 min 0 min 114 W/m 25,7 km/h (4 Bft) 95,74 %
01.01.2020 11:18 0,9 C 1,1 C 0,6 C 96 % 1033,6 hPa 0,0 l/m 0 min 0 min 103 W/m 22,5 km/h (4 Bft) 97,87 %
01.01.2020 11:20 0,9 C 1,1 C 0,6 C 96 % 1033,6 hPa 0,0 l/m 0 min 0 min 111 W/m 25,7 km/h (4 Bft) 97,87 %
01.01.2020 11:22 0,9 C 1,1 C 0,6 C 96 % 1033,6 hPa 0,0 l/m 0 min 0 min 109 W/m 29,0 km/h (5 Bft) 95,74 %
01.01.2020 11:24 1,0 C 1,1 C 0,6 C 96 % 1033,5 hPa 0,0 l/m 0 min 0 min 109 W/m 22,5 km/h (4 Bft) 97,83 %
01.01.2020 11:26 1,0 C 1,1 C 0,6 C 96 % 1033,5 hPa 0,0 l/m 0 min 0 min 115 W/m 19,3 km/h (3 Bft) 97,87 %
01.01.2020 11:28 1,0 C 1,1 C 0,6 C 96 % 1033,5 hPa 0,0 l/m 0 min 0 min 116 W/m 22,5 km/h (4 Bft) 97,87 %
01.01.2020 11:30 1,1 C 1,7 C 0,6 C 96 % 1033,5 hPa 0,0 l/m 0 min 0 min 117 W/m 25,7 km/h (4 Bft) 97,87 %
01.01.2020 11:32 1,1 C 1,7 C 0,6 C 95 % 1033,4 hPa 0,0 l/m 0 min 0 min 126 W/m 19,3 km/h (3 Bft) 93,62 %
01.01.2020 11:34 1,1 C 1,7 C 0,6 C 95 % 1033,4 hPa 0,0 l/m 0 min 0 min 121 W/m 22,5 km/h (4 Bft) 97,87 %
01.01.2020 11:36 1,1 C 1,7 C 0,6 C 95 % 1033,5 hPa 0,0 l/m 0 min 0 min 116 W/m 19,3 km/h (3 Bft) 93,48 %
01.01.2020 11:38 1,2 C 1,7 C 0,6 C 95 % 1033,5 hPa 0,0 l/m 0 min 0 min 115 W/m 16,1 km/h (3 Bft) 97,87 %
01.01.2020 11:40 1,2 C 1,7 C 0,6 C 95 % 1033,4 hPa 0,0 l/m 0 min 0 min 114 W/m 22,5 km/h (4 Bft) 97,87 %
01.01.2020 11:42 1,2 C 1,7 C 0,6 C 95 % 1033,4 hPa 0,0 l/m 0 min 0 min 112 W/m 22,5 km/h (4 Bft) 97,87 %
01.01.2020 11:44 1,2 C 1,7 C 1,1 C 96 % 1033,4 hPa 0,0 l/m 0 min 0 min 117 W/m 19,3 km/h (3 Bft) 100,00 %
01.01.2020 11:46 1,3 C 1,7 C 1,1 C 96 % 1033,4 hPa 0,0 l/m 0 min 0 min 118 W/m 19,3 km/h (3 Bft) 97,83 %
01.01.2020 11:48 1,3 C 1,7 C 1,1 C 96 % 1033,4 hPa 0,0 l/m 0 min 0 min 120 W/m 22,5 km/h (4 Bft) 95,74 %
01.01.2020 11:50 1,3 C 1,7 C 1,1 C 96 % 1033,4 hPa 0,0 l/m 0 min 0 min 123 W/m 25,7 km/h (4 Bft) 97,87 %
01.01.2020 11:52 1,3 C 1,7 C 1,1 C 96 % 1033,4 hPa 0,0 l/m 0 min 0 min 123 W/m 19,3 km/h (3 Bft) 97,87 %
01.01.2020 11:54 1,4 C 1,7 C 1,1 C 96 % 1033,4 hPa 0,0 l/m 0 min 0 min 120 W/m 19,3 km/h (3 Bft) 95,74 %
01.01.2020 11:56 1,4 C 1,7 C 1,1 C 95 % 1033,3 hPa 0,0 l/m 0 min 0 min 124 W/m 32,2 km/h (5 Bft) 95,74 %
01.01.2020 11:58 1,4 C 2,2 C 1,1 C 95 % 1033,3 hPa 0,0 l/m 0 min 0 min 121 W/m 22,5 km/h (4 Bft) 93,48 %
01.01.2020 12:00 1,5 C 2,2 C 1,1 C 95 % 1033,3 hPa 0,0 l/m 0 min 0 min 117 W/m 16,1 km/h (3 Bft) 95,74 %
01.01.2020 12:02 1,6 C 2,2 C 1,1 C 95 % 1033,2 hPa 0,0 l/m 0 min 0 min 115 W/m 25,7 km/h (4 Bft) 93,62 %
01.01.2020 12:04 1,6 C 2,2 C 1,1 C 95 % 1033,2 hPa 0,0 l/m 0 min 0 min 118 W/m 12,9 km/h (3 Bft) 97,87 %
01.01.2020 12:06 1,6 C 2,2 C 1,1 C 95 % 1033,3 hPa 0,0 l/m 0 min 0 min 118 W/m 25,7 km/h (4 Bft) 97,87 %
01.01.2020 12:08 1,6 C 2,2 C 1,1 C 96 % 1033,3 hPa 0,0 l/m 0 min 0 min 129 W/m 22,5 km/h (4 Bft) 97,87 %
01.01.2020 12:10 1,6 C 2,2 C 1,1 C 96 % 1033,3 hPa 0,0 l/m 0 min 0 min 120 W/m 12,9 km/h (3 Bft) 97,83 %
01.01.2020 12:12 1,7 C 2,2 C 1,1 C 96 % 1033,3 hPa 0,0 l/m 0 min 0 min 131 W/m 16,1 km/h (3 Bft) 97,87 %
01.01.2020 12:14 1,7 C 2,2 C 1,1 C 95 % 1033,3 hPa 0,0 l/m 0 min 0 min 138 W/m 16,1 km/h (3 Bft) 95,74 %
01.01.2020 12:16 1,7 C 2,2 C 1,7 C 95 % 1033,2 hPa 0,0 l/m 2 min 0 min 154 W/m 19,3 km/h (3 Bft) 97,87 %
01.01.2020 12:18 1,8 C 2,8 C 1,7 C 95 % 1033,2 hPa 0,0 l/m 0 min 0 min 139 W/m 16,1 km/h (3 Bft) 97,87 %
01.01.2020 12:20 1,8 C 2,8 C 1,7 C 95 % 1033,2 hPa 0,0 l/m 0 min 0 min 146 W/m 25,7 km/h (4 Bft) 97,87 %
01.01.2020 12:22 1,8 C 2,8 C 1,7 C 95 % 1033,2 hPa 0,0 l/m 0 min 0 min 151 W/m 12,9 km/h (3 Bft) 97,83 %
01.01.2020 12:24 1,9 C 2,8 C 1,7 C 96 % 1033,2 hPa 0,0 l/m 0 min 0 min 143 W/m 12,9 km/h (3 Bft) 95,74 %
01.01.2020 12:26 1,9 C 2,8 C 1,7 C 95 % 1033,2 hPa 0,0 l/m 0 min 0 min 147 W/m 22,5 km/h (4 Bft) 97,87 %
01.01.2020 12:28 1,9 C 2,8 C 1,7 C 95 % 1033,2 hPa 0,0 l/m 2 min 0 min 162 W/m 19,3 km/h (3 Bft) 97,87 %
01.01.2020 12:30 1,9 C 3,3 C 1,7 C 95 % 1033,2 hPa 0,0 l/m 2 min 0 min 174 W/m 6,4 km/h (2 Bft) 95,74 %
01.01.2020 12:32 2,0 C 3,3 C 1,7 C 95 % 1033,2 hPa 0,0 l/m 2 min 0 min 166 W/m 12,9 km/h (3 Bft) 97,87 %
01.01.2020 12:34 2,1 C 3,3 C 1,7 C 95 % 1033,2 hPa 0,0 l/m 2 min 0 min 173 W/m 22,5 km/h (4 Bft) 97,83 %
01.01.2020 12:36 2,1 C 3,3 C 1,7 C 95 % 1033,1 hPa 0,0 l/m 2 min 0 min 197 W/m 19,3 km/h (3 Bft) 97,87 %
01.01.2020 12:38 2,1 C 3,3 C 1,7 C 95 % 1033,1 hPa 0,0 l/m 2 min 0 min 182 W/m 16,1 km/h (3 Bft) 95,74 %
01.01.2020 12:40 2,2 C 3,9 C 1,7 C 95 % 1033,1 hPa 0,0 l/m 2 min 0 min 220 W/m 22,5 km/h (4 Bft) 100,00 %
01.01.2020 12:42 2,2 C 3,9 C 1,7 C 95 % 1033,1 hPa 0,0 l/m 2 min 0 min 244 W/m 22,5 km/h (4 Bft) 100,00 %
01.01.2020 12:44 2,2 C 3,9 C 2,2 C 95 % 1033,1 hPa 0,0 l/m 2 min 0 min 184 W/m 16,1 km/h (3 Bft) 93,48 %
01.01.2020 12:46 2,3 C 3,9 C 1,7 C 95 % 1033,0 hPa 0,0 l/m 2 min 0 min 180 W/m 16,1 km/h (3 Bft) 95,74 %
01.01.2020 12:48 2,3 C 3,9 C 1,7 C 95 % 1033,0 hPa 0,0 l/m 2 min 0 min 213 W/m 25,7 km/h (4 Bft) 97,87 %
01.01.2020 12:50 2,3 C 4,4 C 1,7 C 95 % 1032,9 hPa 0,0 l/m 2 min 0 min 235 W/m 16,1 km/h (3 Bft) 100,00 %
01.01.2020 12:52 2,4 C 3,9 C 1,7 C 95 % 1032,9 hPa 0,0 l/m 2 min 0 min 197 W/m 19,3 km/h (3 Bft) 100,00 %
01.01.2020 12:54 2,4 C 4,4 C 1,7 C 95 % 1032,9 hPa 0,0 l/m 2 min 0 min 217 W/m 22,5 km/h (4 Bft) 100,00 %
01.01.2020 12:56 2,4 C 5,0 C 1,7 C 95 % 1032,8 hPa 0,0 l/m 2 min 0 min 286 W/m 19,3 km/h (3 Bft) 97,83 %
01.01.2020 12:58 2,5 C 5,0 C 2,2 C 95 % 1032,8 hPa 0,0 l/m 2 min 0 min 281 W/m 22,5 km/h (4 Bft) 97,87 %
01.01.2020 13:00 2,6 C 5,0 C 1,7 C 95 % 1032,7 hPa 0,0 l/m 2 min 0 min 273 W/m 19,3 km/h (3 Bft) 95,74 %
01.01.2020 13:02 2,6 C 4,4 C 1,7 C 95 % 1032,7 hPa 0,0 l/m 2 min 0 min 249 W/m 29,0 km/h (5 Bft) 97,87 %
01.01.2020 13:04 2,6 C 4,4 C 1,7 C 95 % 1032,6 hPa 0,0 l/m 2 min 0 min 208 W/m 19,3 km/h (3 Bft) 95,74 %
01.01.2020 13:06 2,6 C 5,0 C 1,7 C 94 % 1032,5 hPa 0,0 l/m 2 min 0 min 260 W/m 19,3 km/h (3 Bft) 97,87 %
01.01.2020 13:08 2,7 C 5,0 C 1,7 C 95 % 1032,5 hPa 0,0 l/m 2 min 0 min 284 W/m 22,5 km/h (4 Bft) 95,65 %
01.01.2020 13:10 2,7 C 5,0 C 1,7 C 94 % 1032,6 hPa 0,0 l/m 2 min 0 min 281 W/m 16,1 km/h (3 Bft) 93,62 %
01.01.2020 13:12 2,7 C 5,6 C 1,7 C 94 % 1032,6 hPa 0,0 l/m 2 min 0 min 263 W/m 19,3 km/h (3 Bft) 97,87 %
01.01.2020 13:14 2,7 C 5,0 C 1,7 C 94 % 1032,6 hPa 0,0 l/m 2 min 0 min 265 W/m 22,5 km/h (4 Bft) 97,87 %
01.01.2020 13:16 2,8 C 5,6 C 1,7 C 94 % 1032,5 hPa 0,0 l/m 2 min 0 min 260 W/m 12,9 km/h (3 Bft) 95,74 %
01.01.2020 13:18 2,8 C 5,0 C 1,7 C 94 % 1032,5 hPa 0,0 l/m 2 min 0 min 241 W/m 29,0 km/h (5 Bft) 95,74 %
01.01.2020 13:20 2,9 C 5,0 C 1,7 C 94 % 1032,5 hPa 0,0 l/m 2 min 0 min 222 W/m 19,3 km/h (3 Bft) 97,83 %
01.01.2020 13:22 2,9 C 5,6 C 2,2 C 94 % 1032,4 hPa 0,0 l/m 2 min 0 min 253 W/m 25,7 km/h (4 Bft) 97,87 %
01.01.2020 13:24 2,9 C 6,1 C 2,2 C 94 % 1032,4 hPa 0,0 l/m 2 min 0 min 247 W/m 19,3 km/h (3 Bft) 97,87 %
01.01.2020 13:26 3,1 C 6,1 C 2,2 C 94 % 1032,4 hPa 0,0 l/m 2 min 0 min 257 W/m 19,3 km/h (3 Bft) 97,87 %
01.01.2020 13:28 3,1 C 6,7 C 2,2 C 94 % 1032,4 hPa 0,0 l/m 2 min 0 min 258 W/m 12,9 km/h (3 Bft) 97,87 %
01.01.2020 13:30 3,1 C 6,7 C 2,2 C 94 % 1032,4 hPa 0,0 l/m 2 min 0 min 256 W/m 25,7 km/h (4 Bft) 97,83 %
01.01.2020 13:32 3,2 C 6,7 C 2,2 C 94 % 1032,4 hPa 0,0 l/m 2 min 0 min 253 W/m 16,1 km/h (3 Bft) 100,00 %
01.01.2020 13:34 3,3 C 6,7 C 2,2 C 93 % 1032,5 hPa 0,0 l/m 2 min 0 min 252 W/m 12,9 km/h (3 Bft) 100,00 %
01.01.2020 13:36 3,3 C 6,1 C 2,2 C 93 % 1032,4 hPa 0,0 l/m 2 min 0 min 246 W/m 25,7 km/h (4 Bft) 97,87 %
01.01.2020 13:38 3,3 C 6,1 C 2,2 C 93 % 1032,4 hPa 0,0 l/m 2 min 0 min 252 W/m 19,3 km/h (3 Bft) 100,00 %
01.01.2020 13:40 3,3 C 6,1 C 2,2 C 93 % 1032,4 hPa 0,0 l/m 2 min 0 min 250 W/m 19,3 km/h (3 Bft) 100,00 %
01.01.2020 13:42 3,4 C 6,1 C 2,2 C 93 % 1032,4 hPa 0,0 l/m 2 min 0 min 249 W/m 19,3 km/h (3 Bft) 97,87 %
01.01.2020 13:44 3,4 C 6,1 C 2,2 C 92 % 1032,3 hPa 0,0 l/m 2 min 0 min 248 W/m 19,3 km/h (3 Bft) 100,00 %
01.01.2020 13:46 3,4 C 6,7 C 2,2 C 92 % 1032,3 hPa 0,0 l/m 2 min 0 min 247 W/m 19,3 km/h (3 Bft) 97,87 %
01.01.2020 13:48 3,5 C 6,7 C 2,8 C 92 % 1032,3 hPa 0,0 l/m 2 min 0 min 246 W/m 19,3 km/h (3 Bft) 100,00 %
01.01.2020 13:50 3,6 C 6,1 C 2,8 C 92 % 1032,3 hPa 0,0 l/m 2 min 0 min 241 W/m 22,5 km/h (4 Bft) 100,00 %
01.01.2020 13:52 3,6 C 6,7 C 2,8 C 92 % 1032,3 hPa 0,0 l/m 2 min 0 min 239 W/m 19,3 km/h (3 Bft) 100,00 %
01.01.2020 13:54 3,6 C 6,1 C 2,8 C 92 % 1032,3 hPa 0,0 l/m 2 min 0 min 237 W/m 22,5 km/h (4 Bft) 100,00 %
01.01.2020 13:56 3,7 C 6,1 C 2,8 C 92 % 1032,3 hPa 0,0 l/m 2 min 0 min 236 W/m 19,3 km/h (3 Bft) 100,00 %
01.01.2020 13:58 3,7 C 6,1 C 2,8 C 92 % 1032,2 hPa 0,0 l/m 2 min 0 min 232 W/m 16,1 km/h (3 Bft) 100,00 %
01.01.2020 14:00 3,7 C 7,2 C 2,8 C 91 % 1032,2 hPa 0,0 l/m 2 min 0 min 233 W/m 12,9 km/h (3 Bft) 97,87 %
01.01.2020 14:02 3,8 C 7,2 C 3,3 C 91 % 1032,2 hPa 0,0 l/m 2 min 0 min 232 W/m 19,3 km/h (3 Bft) 97,87 %
01.01.2020 14:04 3,8 C 7,8 C 2,8 C 91 % 1032,1 hPa 0,0 l/m 2 min 0 min 231 W/m 19,3 km/h (3 Bft) 100,00 %
01.01.2020 14:06 3,8 C 7,2 C 2,8 C 91 % 1032,1 hPa 0,0 l/m 2 min 0 min 230 W/m 22,5 km/h (4 Bft) 97,83 %
01.01.2020 14:08 3,9 C 7,2 C 2,8 C 91 % 1032,1 hPa 0,0 l/m 2 min 0 min 227 W/m 12,9 km/h (3 Bft) 100,00 %
01.01.2020 14:10 3,9 C 7,2 C 2,8 C 91 % 1032,0 hPa 0,0 l/m 2 min 0 min 222 W/m 19,3 km/h (3 Bft) 95,74 %
01.01.2020 14:12 3,9 C 6,7 C 2,8 C 91 % 1032,0 hPa 0,0 l/m 2 min 0 min 219 W/m 22,5 km/h (4 Bft) 97,87 %
01.01.2020 14:14 3,9 C 6,1 C 2,8 C 90 % 1032,1 hPa 0,0 l/m 2 min 0 min 216 W/m 25,7 km/h (4 Bft) 100,00 %
01.01.2020 14:16 4,0 C 6,1 C 2,8 C 90 % 1032,0 hPa 0,0 l/m 2 min 0 min 215 W/m 22,5 km/h (4 Bft) 97,87 %
01.01.2020 14:18 4,0 C 6,1 C 2,8 C 90 % 1032,0 hPa 0,0 l/m 2 min 0 min 211 W/m 19,3 km/h (3 Bft) 95,12 %
01.01.2020 14:20 4,0 C 6,1 C 2,2 C 90 % 1032,0 hPa 0,0 l/m 2 min 0 min 209 W/m 19,3 km/h (3 Bft) 95,74 %
01.01.2020 14:22 4,0 C 6,7 C 2,2 C 90 % 1032,0 hPa 0,0 l/m 2 min 0 min 206 W/m 19,3 km/h (3 Bft) 93,62 %
01.01.2020 14:24 4,1 C 6,7 C 2,8 C 90 % 1031,9 hPa 0,0 l/m 2 min 0 min 202 W/m 16,1 km/h (3 Bft) 95,65 %
01.01.2020 14:26 4,1 C 6,7 C 2,2 C 90 % 1032,0 hPa 0,0 l/m 2 min 0 min 200 W/m 16,1 km/h (3 Bft) 95,74 %
01.01.2020 14:28 4,1 C 6,7 C 2,2 C 90 % 1032,0 hPa 0,0 l/m 2 min 0 min 197 W/m 16,1 km/h (3 Bft) 95,74 %
01.01.2020 14:30 4,1 C 7,2 C 2,2 C 90 % 1031,9 hPa 0,0 l/m 2 min 0 min 193 W/m 6,4 km/h (2 Bft) 97,87 %
01.01.2020 14:32 4,1 C 6,7 C 2,8 C 90 % 1031,9 hPa 0,0 l/m 2 min 0 min 191 W/m 12,9 km/h (3 Bft) 95,74 %
01.01.2020 14:34 4,1 C 6,7 C 2,8 C 90 % 1031,9 hPa 0,0 l/m 2 min 0 min 186 W/m 16,1 km/h (3 Bft) 95,74 %
01.01.2020 14:36 4,1 C 6,7 C 2,8 C 89 % 1031,9 hPa 0,0 l/m 2 min 0 min 182 W/m 12,9 km/h (3 Bft) 95,65 %
01.01.2020 14:38 4,1 C 6,7 C 2,2 C 89 % 1031,8 hPa 0,0 l/m 2 min 0 min 180 W/m 6,4 km/h (2 Bft) 95,74 %
01.01.2020 14:40 4,1 C 5,6 C 2,8 C 89 % 1031,8 hPa 0,0 l/m 2 min 0 min 177 W/m 6,4 km/h (2 Bft) 95,74 %
01.01.2020 14:42 4,1 C 4,4 C 2,2 C 89 % 1031,8 hPa 0,0 l/m 2 min 0 min 173 W/m 6,4 km/h (2 Bft) 97,87 %
01.01.2020 14:44 4,1 C 3,9 C 2,2 C 89 % 1031,8 hPa 0,0 l/m 2 min 0 min 168 W/m 3,2 km/h (1 Bft) 95,74 %
01.01.2020 14:46 4,1 C 3,9 C 2,2 C 89 % 1031,8 hPa 0,0 l/m 2 min 0 min 163 W/m 3,2 km/h (1 Bft) 95,65 %
01.01.2020 14:48 4,1 C 3,9 C 2,2 C 89 % 1031,8 hPa 0,0 l/m 2 min 0 min 131 W/m 3,2 km/h (1 Bft) 95,74 %
01.01.2020 14:50 4,1 C 3,3 C 2,2 C 89 % 1031,8 hPa 0,0 l/m 0 min 0 min 68 W/m 6,4 km/h (2 Bft) 95,74 %
01.01.2020 14:52 4,1 C 3,3 C 2,2 C 89 % 1031,8 hPa 0,0 l/m 0 min 0 min 49 W/m 3,2 km/h (1 Bft) 95,74 %
01.01.2020 14:54 4,1 C 3,3 C 2,2 C 90 % 1031,8 hPa 0,0 l/m 0 min 0 min 47 W/m 6,4 km/h (2 Bft) 95,74 %
01.01.2020 14:56 4,0 C 3,3 C 2,2 C 90 % 1031,8 hPa 0,0 l/m 0 min 0 min 47 W/m 6,4 km/h (2 Bft) 95,74 %
01.01.2020 14:58 4,0 C 3,3 C 2,2 C 90 % 1031,8 hPa 0,0 l/m 0 min 0 min 46 W/m 6,4 km/h (2 Bft) 97,83 %
01.01.2020 15:00 4,0 C 3,3 C 2,2 C 90 % 1031,8 hPa 0,0 l/m 0 min 0 min 46 W/m 6,4 km/h (2 Bft) 95,74 %
01.01.2020 15:02 3,9 C 3,3 C 2,2 C 90 % 1031,8 hPa 0,0 l/m 0 min 0 min 46 W/m 6,4 km/h (2 Bft) 97,87 %
01.01.2020 15:04 3,9 C 3,3 C 2,2 C 90 % 1031,8 hPa 0,0 l/m 0 min 0 min 44 W/m 9,7 km/h (2 Bft) 95,74 %
01.01.2020 15:06 3,9 C 3,3 C 2,2 C 90 % 1031,8 hPa 0,0 l/m 0 min 0 min 44 W/m 12,9 km/h (3 Bft) 93,62 %
01.01.2020 15:08 3,9 C 3,3 C 2,2 C 90 % 1031,7 hPa 0,0 l/m 0 min 0 min 44 W/m 6,4 km/h (2 Bft) 95,74 %
01.01.2020 15:10 3,8 C 3,3 C 2,2 C 90 % 1031,7 hPa 0,0 l/m 0 min 0 min 42 W/m 6,4 km/h (2 Bft) 95,65 %
01.01.2020 15:12 3,8 C 3,3 C 2,2 C 90 % 1031,7 hPa 0,0 l/m 0 min 0 min 41 W/m 6,4 km/h (2 Bft) 95,74 %
01.01.2020 15:14 3,8 C 3,3 C 2,2 C 90 % 1031,7 hPa 0,0 l/m 0 min 0 min 40 W/m 6,4 km/h (2 Bft) 97,87 %
01.01.2020 15:16 3,8 C 3,3 C 2,2 C 90 % 1031,7 hPa 0,0 l/m 0 min 0 min 39 W/m 12,9 km/h (3 Bft) 97,87 %
01.01.2020 15:18 3,8 C 3,3 C 2,2 C 90 % 1031,7 hPa 0,0 l/m 0 min 0 min 39 W/m 6,4 km/h (2 Bft) 97,87 %
01.01.2020 15:20 3,7 C 3,3 C 2,2 C 90 % 1031,7 hPa 0,0 l/m 0 min 0 min 38 W/m 6,4 km/h (2 Bft) 100,00 %
01.01.2020 15:22 3,7 C 3,3 C 2,2 C 90 % 1031,7 hPa 0,0 l/m 0 min 0 min 37 W/m 16,1 km/h (3 Bft) 95,65 %
01.01.2020 15:24 3,7 C 3,3 C 2,2 C 90 % 1031,7 hPa 0,0 l/m 0 min 0 min 37 W/m 12,9 km/h (3 Bft) 95,74 %
01.01.2020 15:26 3,7 C 2,8 C 2,2 C 90 % 1031,7 hPa 0,0 l/m 0 min 0 min 35 W/m 12,9 km/h (3 Bft) 97,87 %
01.01.2020 15:28 3,6 C 2,8 C 2,2 C 90 % 1031,7 hPa 0,0 l/m 0 min 0 min 35 W/m 6,4 km/h (2 Bft) 97,87 %
01.01.2020 15:30 3,6 C 2,8 C 2,2 C 90 % 1031,6 hPa 0,0 l/m 0 min 0 min 33 W/m 6,4 km/h (2 Bft) 97,87 %
01.01.2020 15:32 3,6 C 2,8 C 2,2 C 90 % 1031,7 hPa 0,0 l/m 0 min 0 min 33 W/m 3,2 km/h (1 Bft) 97,87 %
01.01.2020 15:34 3,6 C 2,8 C 2,2 C 90 % 1031,6 hPa 0,0 l/m 0 min 0 min 33 W/m 3,2 km/h (1 Bft) 97,83 %
01.01.2020 15:36 3,6 C 2,8 C 2,2 C 90 % 1031,7 hPa 0,0 l/m 0 min 0 min 32 W/m 3,2 km/h (1 Bft) 97,87 %
01.01.2020 15:38 3,6 C 2,8 C 2,2 C 91 % 1031,7 hPa 0,0 l/m 0 min 0 min 31 W/m 3,2 km/h (1 Bft) 97,87 %
01.01.2020 15:40 3,6 C 2,8 C 2,2 C 91 % 1031,7 hPa 0,0 l/m 0 min 0 min 30 W/m 6,4 km/h (2 Bft) 95,74 %
01.01.2020 15:42 3,5 C 2,8 C 1,7 C 91 % 1031,7 hPa 0,0 l/m 0 min 0 min 30 W/m 3,2 km/h (1 Bft) 95,74 %
01.01.2020 15:44 3,5 C 2,8 C 1,7 C 91 % 1031,8 hPa 0,0 l/m 0 min 0 min 28 W/m 6,4 km/h (2 Bft) 97,83 %
01.01.2020 15:46 3,5 C 2,8 C 1,7 C 91 % 1031,7 hPa 0,0 l/m 0 min 0 min 28 W/m 12,9 km/h (3 Bft) 95,74 %
01.01.2020 15:48 3,4 C 2,8 C 1,7 C 91 % 1031,8 hPa 0,0 l/m 0 min 0 min 26 W/m 16,1 km/h (3 Bft) 97,87 %
01.01.2020 15:50 3,4 C 2,8 C 1,7 C 91 % 1031,8 hPa 0,0 l/m 0 min 0 min 26 W/m 3,2 km/h (1 Bft) 97,87 %
01.01.2020 15:52 3,4 C 2,8 C 1,7 C 91 % 1031,8 hPa 0,0 l/m 0 min 0 min 25 W/m 3,2 km/h (1 Bft) 95,74 %
01.01.2020 15:54 3,4 C 2,8 C 1,7 C 91 % 1031,8 hPa 0,0 l/m 0 min 0 min 25 W/m 6,4 km/h (2 Bft) 100,00 %
01.01.2020 15:56 3,4 C 2,8 C 1,7 C 91 % 1031,8 hPa 0,0 l/m 0 min 0 min 23 W/m 6,4 km/h (2 Bft) 97,83 %
01.01.2020 15:58 3,3 C 2,8 C 1,7 C 91 % 1031,8 hPa 0,0 l/m 0 min 0 min 22 W/m 6,4 km/h (2 Bft) 100,00 %
01.01.2020 16:00 3,3 C 2,8 C 1,7 C 91 % 1031,8 hPa 0,0 l/m 0 min 0 min 21 W/m 3,2 km/h (1 Bft) 97,87 %
01.01.2020 16:02 3,3 C 2,8 C 1,7 C 91 % 1031,8 hPa 0,0 l/m 0 min 0 min 20 W/m 0,0 km/h (0 Bft) 100,00 %
01.01.2020 16:04 3,3 C 2,8 C 1,7 C 91 % 1031,8 hPa 0,0 l/m 0 min 0 min 19 W/m 0,0 km/h (0 Bft) 95,74 %
01.01.2020 16:06 3,3 C 2,2 C 1,7 C 91 % 1031,8 hPa 0,0 l/m 0 min 0 min 19 W/m 0,0 km/h (0 Bft) 97,87 %
01.01.2020 16:08 3,3 C 2,2 C 1,7 C 91 % 1031,8 hPa 0,0 l/m 0 min 0 min 18 W/m 3,2 km/h (1 Bft) 100,00 %
01.01.2020 16:10 3,2 C 2,2 C 1,7 C 91 % 1031,9 hPa 0,0 l/m 0 min 0 min 17 W/m 0,0 km/h (0 Bft) 97,87 %
01.01.2020 16:12 3,2 C 2,2 C 1,1 C 91 % 1031,8 hPa 0,0 l/m 0 min 0 min 16 W/m 0,0 km/h (0 Bft) 100,00 %
01.01.2020 16:14 3,2 C 2,2 C 1,1 C 91 % 1031,8 hPa 0,0 l/m 0 min 0 min 14 W/m 3,2 km/h (1 Bft) 100,00 %
01.01.2020 16:16 3,2 C 2,2 C 1,1 C 91 % 1031,8 hPa 0,0 l/m 0 min 0 min 14 W/m 3,2 km/h (1 Bft) 97,87 %
01.01.2020 16:18 3,2 C 2,2 C 1,1 C 91 % 1031,8 hPa 0,0 l/m 0 min 0 min 13 W/m 0,0 km/h (0 Bft) 97,87 %
01.01.2020 16:20 3,1 C 1,7 C 1,1 C 91 % 1031,8 hPa 0,0 l/m 0 min 0 min 12 W/m 0,0 km/h (0 Bft) 97,83 %
01.01.2020 16:22 3,1 C 1,7 C 0,6 C 91 % 1031,8 hPa 0,0 l/m 0 min 0 min 10 W/m 0,0 km/h (0 Bft) 97,87 %
01.01.2020 16:24 3,1 C 1,7 C 0,6 C 91 % 1031,7 hPa 0,0 l/m 0 min 0 min 9 W/m 3,2 km/h (1 Bft) 97,87 %
01.01.2020 16:26 3,1 C 1,7 C 0,6 C 91 % 1031,8 hPa 0,0 l/m 0 min 0 min 7 W/m 3,2 km/h (1 Bft) 97,87 %
01.01.2020 16:28 3,0 C 1,7 C 0,6 C 91 % 1031,8 hPa 0,0 l/m 0 min 0 min 7 W/m 0,0 km/h (0 Bft) 95,74 %
01.01.2020 16:30 3,0 C 1,7 C 0,6 C 91 % 1031,7 hPa 0,0 l/m 0 min 0 min 7 W/m 0,0 km/h (0 Bft) 97,83 %
01.01.2020 16:32 2,9 C 1,7 C 0,6 C 91 % 1031,7 hPa 0,0 l/m 0 min 0 min 7 W/m 0,0 km/h (0 Bft) 95,74 %
01.01.2020 16:34 2,9 C 1,7 C 0,6 C 91 % 1031,8 hPa 0,0 l/m 0 min 0 min 5 W/m 0,0 km/h (0 Bft) 97,87 %
01.01.2020 16:36 2,9 C 1,7 C 0,6 C 91 % 1031,7 hPa 0,0 l/m 0 min 0 min 5 W/m 0,0 km/h (0 Bft) 95,74 %
01.01.2020 16:38 2,9 C 1,1 C 0,0 C 91 % 1031,7 hPa 0,0 l/m 0 min 0 min 5 W/m 0,0 km/h (0 Bft) 97,87 %
01.01.2020 16:40 2,8 C 1,1 C 0,0 C 91 % 1031,7 hPa 0,0 l/m 0 min 0 min 0 W/m 0,0 km/h (0 Bft) 97,87 %
01.01.2020 16:42 2,8 C 0,6 C 0,0 C 91 % 1031,8 hPa 0,0 l/m 0 min 0 min 0 W/m 0,0 km/h (0 Bft) 54,55 %
01.01.2020 16:44 2,8 C 0,6 C -0,6 C 91 % 1031,8 hPa 0,0 l/m 0 min 0 min 0 W/m 0,0 km/h (0 Bft) 100,00 %
01.01.2020 16:46 2,7 C 0,0 C -0,6 C 91 % 1031,8 hPa 0,0 l/m 0 min 0 min 0 W/m 0,0 km/h (0 Bft) 100,00 %
01.01.2020 16:48 2,7 C 0,0 C -0,6 C 91 % 1031,8 hPa 0,0 l/m 0 min 0 min 0 W/m 0,0 km/h (0 Bft) 100,00 %
01.01.2020 16:50 2,6 C 0,0 C -1,1 C 91 % 1031,8 hPa 0,0 l/m 0 min 0 min 0 W/m 0,0 km/h (0 Bft) 100,00 %
01.01.2020 16:52 2,6 C 0,0 C -1,1 C 91 % 1031,8 hPa 0,0 l/m 0 min 0 min 0 W/m 0,0 km/h (0 Bft) 100,00 %
01.01.2020 16:54 2,4 C 0,0 C -1,1 C 91 % 1031,7 hPa 0,0 l/m 0 min 0 min 0 W/m 0,0 km/h (0 Bft) 100,00 %
01.01.2020 16:56 2,3 C 0,0 C -1,1 C 90 % 1031,8 hPa 0,0 l/m 0 min 0 min 0 W/m 0,0 km/h (0 Bft) 100,00 %
01.01.2020 16:58 2,3 C 0,0 C -1,1 C 91 % 1031,7 hPa 0,0 l/m 0 min 0 min 0 W/m 0,0 km/h (0 Bft) 100,00 %
01.01.2020 17:00 2,2 C 0,6 C -1,1 C 91 % 1031,7 hPa 0,0 l/m 0 min 0 min 0 W/m 0,0 km/h (0 Bft) 97,87 %
01.01.2020 17:02 2,2 C 0,6 C -1,1 C 91 % 1031,7 hPa 0,0 l/m 0 min 0 min 0 W/m 0,0 km/h (0 Bft) 95,74 %
01.01.2020 17:04 2,1 C 0,6 C -1,1 C 91 % 1031,6 hPa 0,0 l/m 0 min 0 min 0 W/m 0,0 km/h (0 Bft) 97,87 %
01.01.2020 17:06 2,1 C 0,6 C -0,6 C 91 % 1031,6 hPa 0,0 l/m 0 min 0 min 0 W/m 0,0 km/h (0 Bft) 100,00 %
01.01.2020 17:08 2,1 C 0,6 C -0,6 C 91 % 1031,6 hPa 0,0 l/m 0 min 0 min 0 W/m 3,2 km/h (1 Bft) 100,00 %
01.01.2020 17:10 2,1 C 0,6 C -0,6 C 91 % 1031,6 hPa 0,0 l/m 0 min 0 min 0 W/m 0,0 km/h (0 Bft) 100,00 %
01.01.2020 17:12 2,0 C 0,6 C -0,6 C 91 % 1031,6 hPa 0,0 l/m 0 min 0 min 0 W/m 0,0 km/h (0 Bft) 97,87 %
01.01.2020 17:14 2,0 C 0,6 C -0,6 C 91 % 1031,5 hPa 0,0 l/m 0 min 0 min 0 W/m 0,0 km/h (0 Bft) 100,00 %
01.01.2020 17:16 1,9 C 0,6 C -0,6 C 91 % 1031,5 hPa 0,0 l/m 0 min 0 min 0 W/m 0,0 km/h (0 Bft) 97,87 %
01.01.2020 17:18 1,9 C 0,6 C -0,6 C 91 % 1031,6 hPa 0,0 l/m 0 min 0 min 0 W/m 0,0 km/h (0 Bft) 100,00 %
01.01.2020 17:20 1,9 C 0,6 C -0,6 C 91 % 1031,5 hPa 0,0 l/m 0 min 0 min 0 W/m 0,0 km/h (0 Bft) 100,00 %
01.01.2020 17:22 1,9 C 0,6 C -0,6 C 92 % 1031,6 hPa 0,0 l/m 0 min 0 min 0 W/m 0,0 km/h (0 Bft) 100,00 %
01.01.2020 17:24 1,9 C 0,6 C -0,6 C 92 % 1031,6 hPa 0,0 l/m 0 min 0 min 0 W/m 0,0 km/h (0 Bft) 97,87 %
01.01.2020 17:26 1,8 C 0,6 C -0,6 C 92 % 1031,6 hPa 0,0 l/m 0 min 0 min 0 W/m 3,2 km/h (1 Bft) 97,87 %
01.01.2020 17:28 1,8 C 1,1 C 0,0 C 92 % 1031,7 hPa 0,0 l/m 0 min 0 min 0 W/m 3,2 km/h (1 Bft) 97,87 %
01.01.2020 17:30 1,8 C 0,6 C -0,6 C 92 % 1031,7 hPa 0,0 l/m 0 min 0 min 0 W/m 0,0 km/h (0 Bft) 97,83 %
01.01.2020 17:32 1,8 C 0,6 C -0,6 C 92 % 1031,7 hPa 0,0 l/m 0 min 0 min 0 W/m 0,0 km/h (0 Bft) 93,62 %
01.01.2020 17:34 1,8 C 1,1 C -0,6 C 92 % 1031,7 hPa 0,0 l/m 0 min 0 min 0 W/m 0,0 km/h (0 Bft) 97,87 %
01.01.2020 17:36 1,8 C 0,6 C -0,6 C 92 % 1031,7 hPa 0,0 l/m 0 min 0 min 0 W/m 0,0 km/h (0 Bft) 97,87 %
01.01.2020 17:38 1,7 C 0,6 C -0,6 C 92 % 1031,7 hPa 0,0 l/m 0 min 0 min 0 W/m 0,0 km/h (0 Bft) 95,74 %
01.01.2020 17:40 1,7 C 0,6 C -0,6 C 92 % 1031,7 hPa 0,0 l/m 0 min 0 min 0 W/m 0,0 km/h (0 Bft) 100,00 %
01.01.2020 17:42 1,7 C 0,6 C -0,6 C 92 % 1031,7 hPa 0,0 l/m 0 min 0 min 0 W/m 0,0 km/h (0 Bft) 97,87 %
01.01.2020 17:44 1,7 C 0,6 C -0,6 C 93 % 1031,7 hPa 0,0 l/m 0 min 0 min 0 W/m 0,0 km/h (0 Bft) 97,87 %
01.01.2020 17:46 1,7 C 0,6 C -0,6 C 93 % 1031,8 hPa 0,0 l/m 0 min 0 min 0 W/m 0,0 km/h (0 Bft) 95,74 %
01.01.2020 17:48 1,7 C 0,6 C -0,6 C 93 % 1031,8 hPa 0,0 l/m 0 min 0 min 0 W/m 0,0 km/h (0 Bft) 97,87 %
01.01.2020 17:50 1,6 C 0,6 C -0,6 C 92 % 1031,8 hPa 0,0 l/m 0 min 0 min 0 W/m 0,0 km/h (0 Bft) 97,87 %
01.01.2020 17:52 1,6 C 0,6 C -1,1 C 93 % 1031,8 hPa 0,0 l/m 0 min 0 min 0 W/m 0,0 km/h (0 Bft) 97,83 %
01.01.2020 17:54 1,6 C 0,6 C -1,1 C 93 % 1031,8 hPa 0,0 l/m 0 min 0 min 0 W/m 0,0 km/h (0 Bft) 97,87 %
01.01.2020 17:56 1,6 C 0,0 C -1,1 C 93 % 1031,8 hPa 0,0 l/m 0 min 0 min 0 W/m 0,0 km/h (0 Bft) 95,74 %
01.01.2020 17:58 1,6 C 0,0 C -1,1 C 93 % 1031,8 hPa 0,0 l/m 0 min 0 min 0 W/m 0,0 km/h (0 Bft) 93,62 %
01.01.2020 18:00 1,6 C 0,0 C -1,7 C 93 % 1031,8 hPa 0,0 l/m 0 min 0 min 0 W/m 0,0 km/h (0 Bft) 97,87 %
01.01.2020 18:02 1,5 C 0,0 C -1,7 C 93 % 1031,8 hPa 0,0 l/m 0 min 0 min 0 W/m 0,0 km/h (0 Bft) 97,87 %
01.01.2020 18:04 1,5 C -0,6 C -1,7 C 93 % 1031,8 hPa 0,0 l/m 0 min 0 min 0 W/m 0,0 km/h (0 Bft) 93,48 %
01.01.2020 18:06 1,4 C -0,6 C -1,7 C 93 % 1031,8 hPa 0,0 l/m 0 min 0 min 0 W/m 0,0 km/h (0 Bft) 93,62 %
01.01.2020 18:08 1,4 C -0,6 C -2,2 C 93 % 1031,8 hPa 0,0 l/m 0 min 0 min 0 W/m 0,0 km/h (0 Bft) 95,74 %
01.01.2020 18:10 1,3 C -1,1 C -2,2 C 93 % 1031,8 hPa 0,0 l/m 0 min 0 min 0 W/m 0,0 km/h (0 Bft) 95,74 %
01.01.2020 18:12 1,3 C -1,1 C -2,2 C 92 % 1031,8 hPa 0,0 l/m 0 min 0 min 0 W/m 0,0 km/h (0 Bft) 93,62 %
01.01.2020 18:14 1,2 C -1,1 C -2,2 C 92 % 1031,8 hPa 0,0 l/m 0 min 0 min 0 W/m 0,0 km/h (0 Bft) 93,62 %
01.01.2020 18:16 1,1 C -1,1 C -2,2 C 92 % 1031,8 hPa 0,0 l/m 0 min 0 min 0 W/m 0,0 km/h (0 Bft) 89,13 %
01.01.2020 18:18 1,1 C -1,7 C -2,2 C 92 % 1031,8 hPa 0,0 l/m 0 min 0 min 0 W/m 0,0 km/h (0 Bft) 93,62 %
01.01.2020 18:20 1,0 C -1,7 C -2,2 C 92 % 1031,8 hPa 0,0 l/m 0 min 0 min 0 W/m 0,0 km/h (0 Bft) 91,49 %
01.01.2020 18:22 0,9 C -1,7 C -2,2 C 92 % 1031,8 hPa 0,0 l/m 0 min 0 min 0 W/m 0,0 km/h (0 Bft) 93,62 %
01.01.2020 18:24 0,8 C -1,7 C -2,8 C 92 % 1031,8 hPa 0,0 l/m 0 min 0 min 0 W/m 0,0 km/h (0 Bft) 93,62 %
01.01.2020 18:26 0,8 C -1,7 C -2,8 C 92 % 1031,8 hPa 0,0 l/m 0 min 0 min 0 W/m 0,0 km/h (0 Bft) 93,48 %
01.01.2020 18:28 0,7 C -1,7 C -2,8 C 92 % 1031,9 hPa 0,0 l/m 0 min 0 min 0 W/m 0,0 km/h (0 Bft) 91,49 %
01.01.2020 18:30 0,6 C -1,7 C -2,8 C 92 % 1031,9 hPa 0,0 l/m 0 min 0 min 0 W/m 0,0 km/h (0 Bft) 93,62 %
01.01.2020 18:32 0,6 C -1,7 C -2,8 C 92 % 1031,9 hPa 0,0 l/m 0 min 0 min 0 W/m 0,0 km/h (0 Bft) 91,49 %
01.01.2020 18:34 0,6 C -1,1 C -2,8 C 92 % 1031,8 hPa 0,0 l/m 0 min 0 min 0 W/m 0,0 km/h (0 Bft) 93,62 %
01.01.2020 18:36 0,6 C -1,1 C -2,8 C 92 % 1031,9 hPa 0,0 l/m 0 min 0 min 0 W/m 0,0 km/h (0 Bft) 91,49 %
01.01.2020 18:38 0,5 C -0,6 C -2,2 C 92 % 1031,9 hPa 0,0 l/m 0 min 0 min 0 W/m 6,4 km/h (2 Bft) 95,65 %
01.01.2020 18:40 0,5 C 0,0 C -2,2 C 92 % 1031,9 hPa 0,0 l/m 0 min 0 min 0 W/m 0,0 km/h (0 Bft) 95,74 %
01.01.2020 18:42 0,4 C 0,0 C -2,2 C 92 % 1031,8 hPa 0,0 l/m 0 min 0 min 0 W/m 3,2 km/h (1 Bft) 97,87 %
01.01.2020 18:44 0,4 C 0,0 C -1,7 C 92 % 1031,7 hPa 0,0 l/m 0 min 0 min 0 W/m 3,2 km/h (1 Bft) 97,87 %
01.01.2020 18:46 0,4 C 0,0 C -1,7 C 92 % 1031,8 hPa 0,0 l/m 0 min 0 min 0 W/m 3,2 km/h (1 Bft) 95,74 %
01.01.2020 18:48 0,5 C 0,6 C -1,7 C 93 % 1031,7 hPa 0,0 l/m 0 min 0 min 0 W/m 3,2 km/h (1 Bft) 97,87 %
01.01.2020 18:50 0,5 C 0,6 C -1,1 C 93 % 1031,8 hPa 0,0 l/m 0 min 0 min 0 W/m 3,2 km/h (1 Bft) 95,65 %
01.01.2020 18:52 0,6 C 0,6 C -1,1 C 93 % 1031,7 hPa 0,0 l/m 0 min 0 min 0 W/m 12,9 km/h (3 Bft) 97,87 %
01.01.2020 18:54 0,6 C 0,6 C -1,1 C 93 % 1031,6 hPa 0,0 l/m 0 min 0 min 0 W/m 3,2 km/h (1 Bft) 100,00 %
01.01.2020 18:56 0,6 C 0,6 C -0,6 C 93 % 1031,6 hPa 0,0 l/m 0 min 0 min 0 W/m 6,4 km/h (2 Bft) 93,62 %
01.01.2020 18:58 0,6 C 0,6 C -0,6 C 94 % 1031,6 hPa 0,0 l/m 0 min 0 min 0 W/m 6,4 km/h (2 Bft) 97,87 %
01.01.2020 19:00 0,6 C 0,6 C -0,6 C 94 % 1031,6 hPa 0,0 l/m 0 min 0 min 0 W/m 3,2 km/h (1 Bft) 95,74 %
01.01.2020 19:02 0,7 C 0,6 C -0,6 C 94 % 1031,6 hPa 0,0 l/m 0 min 0 min 0 W/m 3,2 km/h (1 Bft) 100,00 %
01.01.2020 19:04 0,8 C 0,6 C -0,6 C 94 % 1031,6 hPa 0,0 l/m 0 min 0 min 0 W/m 6,4 km/h (2 Bft) 100,00 %
01.01.2020 19:06 0,8 C 0,6 C -0,6 C 94 % 1031,6 hPa 0,0 l/m 0 min 0 min 0 W/m 0,0 km/h (0 Bft) 97,87 %
01.01.2020 19:08 0,9 C 0,6 C -0,6 C 94 % 1031,5 hPa 0,0 l/m 0 min 0 min 0 W/m 3,2 km/h (1 Bft) 97,87 %
01.01.2020 19:10 0,9 C 0,6 C -0,6 C 94 % 1031,6 hPa 0,0 l/m 0 min 0 min 0 W/m 0,0 km/h (0 Bft) 100,00 %
01.01.2020 19:12 0,9 C 0,6 C -0,6 C 94 % 1031,5 hPa 0,0 l/m 0 min 0 min 0 W/m 6,4 km/h (2 Bft) 100,00 %
01.01.2020 19:14 0,9 C 0,6 C -0,6 C 94 % 1031,5 hPa 0,0 l/m 0 min 0 min 0 W/m 6,4 km/h (2 Bft) 100,00 %
01.01.2020 19:16 0,9 C 0,6 C -0,6 C 95 % 1031,5 hPa 0,0 l/m 0 min 0 min 0 W/m 12,9 km/h (3 Bft) 100,00 %
01.01.2020 19:18 0,9 C 0,6 C -0,6 C 95 % 1031,5 hPa 0,0 l/m 0 min 0 min 0 W/m 6,4 km/h (2 Bft) 100,00 %
01.01.2020 19:20 1,0 C 0,6 C -0,6 C 95 % 1031,4 hPa 0,0 l/m 0 min 0 min 0 W/m 0,0 km/h (0 Bft) 100,00 %
01.01.2020 19:22 1,0 C 0,6 C -0,6 C 95 % 1031,4 hPa 0,0 l/m 0 min 0 min 0 W/m 6,4 km/h (2 Bft) 100,00 %
01.01.2020 19:24 1,0 C 0,6 C -0,6 C 95 % 1031,4 hPa 0,0 l/m 0 min 0 min 0 W/m 3,2 km/h (1 Bft) 100,00 %
01.01.2020 19:26 1,0 C 0,6 C -0,6 C 95 % 1031,4 hPa 0,0 l/m 0 min 0 min 0 W/m 3,2 km/h (1 Bft) 100,00 %
01.01.2020 19:28 1,0 C 0,6 C -0,6 C 95 % 1031,4 hPa 0,0 l/m 0 min 0 min 0 W/m 6,4 km/h (2 Bft) 100,00 %
01.01.2020 19:30 1,0 C 0,6 C -0,6 C 95 % 1031,4 hPa 0,0 l/m 0 min 0 min 0 W/m 3,2 km/h (1 Bft) 97,87 %
01.01.2020 19:32 1,0 C 0,6 C -0,6 C 95 % 1031,4 hPa 0,0 l/m 0 min 0 min 0 W/m 3,2 km/h (1 Bft) 97,87 %
01.01.2020 19:34 1,0 C 0,6 C -0,6 C 95 % 1031,4 hPa 0,0 l/m 0 min 0 min 0 W/m 3,2 km/h (1 Bft) 97,87 %
01.01.2020 19:36 1,0 C 0,6 C -0,6 C 95 % 1031,4 hPa 0,0 l/m 0 min 0 min 0 W/m 3,2 km/h (1 Bft) 97,83 %
01.01.2020 19:38 1,0 C 0,6 C -0,6 C 95 % 1031,4 hPa 0,0 l/m 0 min 0 min 0 W/m 0,0 km/h (0 Bft) 100,00 %
01.01.2020 19:40 1,0 C 0,6 C -0,6 C 95 % 1031,3 hPa 0,0 l/m 0 min 0 min 0 W/m 6,4 km/h (2 Bft) 100,00 %
01.01.2020 19:42 1,0 C 0,6 C -0,6 C 95 % 1031,3 hPa 0,0 l/m 0 min 0 min 0 W/m 3,2 km/h (1 Bft) 100,00 %
01.01.2020 19:44 1,0 C 0,6 C -0,6 C 95 % 1031,4 hPa 0,0 l/m 0 min 0 min 0 W/m 6,4 km/h (2 Bft) 97,87 %
01.01.2020 19:46 1,0 C 0,6 C -0,6 C 95 % 1031,3 hPa 0,0 l/m 0 min 0 min 0 W/m 3,2 km/h (1 Bft) 100,00 %
01.01.2020 19:48 1,0 C 0,6 C -0,6 C 95 % 1031,3 hPa 0,0 l/m 0 min 0 min 0 W/m 3,2 km/h (1 Bft) 100,00 %
01.01.2020 19:50 1,0 C 0,6 C -0,6 C 95 % 1031,3 hPa 0,0 l/m 0 min 0 min 0 W/m 0,0 km/h (0 Bft) 100,00 %
01.01.2020 19:52 1,0 C 0,6 C -0,6 C 95 % 1031,3 hPa 0,0 l/m 0 min 0 min 0 W/m 3,2 km/h (1 Bft) 97,87 %
01.01.2020 19:54 1,0 C 0,6 C -0,6 C 95 % 1031,3 hPa 0,0 l/m 0 min 0 min 0 W/m 16,1 km/h (3 Bft) 97,87 %
01.01.2020 19:56 1,0 C 0,6 C -0,6 C 95 % 1031,3 hPa 0,0 l/m 0 min 0 min 0 W/m 16,1 km/h (3 Bft) 100,00 %
01.01.2020 19:58 1,0 C 0,6 C 0,0 C 95 % 1031,3 hPa 0,0 l/m 0 min 0 min 0 W/m 16,1 km/h (3 Bft) 97,87 %
01.01.2020 20:00 1,1 C 0,6 C 0,0 C 95 % 1031,3 hPa 0,0 l/m 0 min 0 min 0 W/m 6,4 km/h (2 Bft) 97,83 %
01.01.2020 20:02 1,1 C 0,6 C 0,0 C 95 % 1031,2 hPa 0,0 l/m 0 min 0 min 0 W/m 12,9 km/h (3 Bft) 97,87 %
01.01.2020 20:04 1,1 C 0,6 C 0,0 C 95 % 1031,2 hPa 0,0 l/m 0 min 0 min 0 W/m 12,9 km/h (3 Bft) 95,74 %
01.01.2020 20:06 1,1 C 0,6 C 0,0 C 95 % 1031,2 hPa 0,0 l/m 0 min 0 min 0 W/m 6,4 km/h (2 Bft) 97,87 %
01.01.2020 20:08 1,1 C 0,6 C 0,0 C 95 % 1031,3 hPa 0,0 l/m 0 min 0 min 0 W/m 6,4 km/h (2 Bft) 100,00 %
01.01.2020 20:10 1,1 C 0,6 C 0,0 C 95 % 1031,3 hPa 0,0 l/m 0 min 0 min 0 W/m 12,9 km/h (3 Bft) 100,00 %
01.01.2020 20:12 1,1 C 0,6 C -0,6 C 95 % 1031,3 hPa 0,0 l/m 0 min 0 min 0 W/m 12,9 km/h (3 Bft) 97,87 %
01.01.2020 20:14 1,1 C 0,6 C -0,6 C 95 % 1031,3 hPa 0,0 l/m 0 min 0 min 0 W/m 12,9 km/h (3 Bft) 97,87 %
01.01.2020 20:16 1,1 C 0,6 C -0,6 C 95 % 1031,3 hPa 0,0 l/m 0 min 0 min 0 W/m 6,4 km/h (2 Bft) 97,87 %
01.01.2020 20:18 1,1 C 0,6 C -0,6 C 95 % 1031,3 hPa 0,0 l/m 0 min 0 min 0 W/m 16,1 km/h (3 Bft) 97,87 %
01.01.2020 20:20 1,1 C 0,6 C -0,6 C 95 % 1031,3 hPa 0,0 l/m 0 min 0 min 0 W/m 6,4 km/h (2 Bft) 97,87 %
01.01.2020 20:22 1,1 C 0,6 C -0,6 C 95 % 1031,2 hPa 0,0 l/m 0 min 0 min 0 W/m 6,4 km/h (2 Bft) 97,83 %
01.01.2020 20:24 1,0 C 0,0 C -0,6 C 95 % 1031,3 hPa 0,0 l/m 0 min 0 min 0 W/m 12,9 km/h (3 Bft) 97,87 %
01.01.2020 20:26 1,0 C 0,6 C -0,6 C 95 % 1031,3 hPa 0,0 l/m 0 min 0 min 0 W/m 16,1 km/h (3 Bft) 100,00 %
01.01.2020 20:28 1,0 C 0,6 C -0,6 C 95 % 1031,3 hPa 0,0 l/m 0 min 0 min 0 W/m 6,4 km/h (2 Bft) 82,98 %
01.01.2020 20:30 1,0 C 0,0 C -0,6 C 95 % 1031,3 hPa 0,0 l/m 0 min 0 min 0 W/m 6,4 km/h (2 Bft) 65,85 %
01.01.2020 20:32 1,0 C 0,6 C -0,6 C 95 % 1031,3 hPa 0,0 l/m 0 min 0 min 0 W/m 12,9 km/h (3 Bft) 97,87 %
01.01.2020 20:34 0,9 C 0,6 C -0,6 C 95 % 1031,2 hPa 0,0 l/m 0 min 0 min 0 W/m 6,4 km/h (2 Bft) 93,48 %
01.01.2020 20:36 0,9 C 0,6 C -0,6 C 95 % 1031,3 hPa 0,0 l/m 0 min 0 min 0 W/m 12,9 km/h (3 Bft) 93,62 %
01.01.2020 20:38 0,9 C 0,0 C -0,6 C 95 % 1031,3 hPa 0,0 l/m 0 min 0 min 0 W/m 6,4 km/h (2 Bft) 97,87 %
01.01.2020 20:40 0,9 C 0,0 C -0,6 C 95 % 1031,3 hPa 0,0 l/m 0 min 0 min 0 W/m 12,9 km/h (3 Bft) 97,87 %
01.01.2020 20:42 0,9 C 0,0 C -0,6 C 95 % 1031,3 hPa 0,0 l/m 0 min 0 min 0 W/m 12,9 km/h (3 Bft) 97,87 %
01.01.2020 20:44 0,9 C 0,6 C -0,6 C 95 % 1031,3 hPa 0,0 l/m 0 min 0 min 0 W/m 16,1 km/h (3 Bft) 95,74 %
01.01.2020 20:46 0,9 C 0,6 C -0,6 C 95 % 1031,2 hPa 0,0 l/m 0 min 0 min 0 W/m 16,1 km/h (3 Bft) 95,65 %
01.01.2020 20:48 0,9 C 0,6 C -0,6 C 95 % 1031,2 hPa 0,0 l/m 0 min 0 min 0 W/m 12,9 km/h (3 Bft) 97,87 %
01.01.2020 20:50 0,9 C 0,6 C 0,0 C 95 % 1031,2 hPa 0,0 l/m 0 min 0 min 0 W/m 16,1 km/h (3 Bft) 95,74 %
01.01.2020 20:52 0,9 C 0,6 C 0,0 C 95 % 1031,2 hPa 0,0 l/m 0 min 0 min 0 W/m 22,5 km/h (4 Bft) 97,87 %
01.01.2020 20:54 0,9 C 0,6 C 0,0 C 96 % 1031,2 hPa 0,0 l/m 0 min 0 min 0 W/m 12,9 km/h (3 Bft) 95,74 %
01.01.2020 20:56 1,0 C 0,6 C 0,0 C 96 % 1031,2 hPa 0,0 l/m 0 min 0 min 0 W/m 16,1 km/h (3 Bft) 95,74 %
01.01.2020 20:58 1,0 C 0,6 C 0,0 C 96 % 1031,2 hPa 0,0 l/m 0 min 0 min 0 W/m 16,1 km/h (3 Bft) 95,65 %
01.01.2020 21:00 1,0 C 0,6 C 0,0 C 96 % 1031,1 hPa 0,0 l/m 0 min 0 min 0 W/m 6,4 km/h (2 Bft) 97,87 %
01.01.2020 21:02 1,0 C 0,6 C 0,0 C 96 % 1031,2 hPa 0,0 l/m 0 min 0 min 0 W/m 12,9 km/h (3 Bft) 97,87 %
01.01.2020 21:04 1,0 C 0,6 C -0,6 C 96 % 1031,2 hPa 0,0 l/m 0 min 0 min 0 W/m 12,9 km/h (3 Bft) 97,87 %
01.01.2020 21:06 1,0 C 0,6 C -0,6 C 96 % 1031,1 hPa 0,0 l/m 0 min 0 min 0 W/m 16,1 km/h (3 Bft) 97,87 %
01.01.2020 21:08 1,0 C 0,6 C -0,6 C 96 % 1031,2 hPa 0,0 l/m 0 min 0 min 0 W/m 12,9 km/h (3 Bft) 95,74 %
01.01.2020 21:10 1,0 C 0,6 C -0,6 C 96 % 1031,2 hPa 0,0 l/m 0 min 0 min 0 W/m 12,9 km/h (3 Bft) 97,83 %
01.01.2020 21:12 1,0 C 0,0 C -0,6 C 96 % 1031,2 hPa 0,0 l/m 0 min 0 min 0 W/m 16,1 km/h (3 Bft) 97,87 %
01.01.2020 21:14 0,9 C 0,6 C -0,6 C 96 % 1031,1 hPa 0,0 l/m 0 min 0 min 0 W/m 16,1 km/h (3 Bft) 97,87 %
01.01.2020 21:16 0,9 C 0,0 C -0,6 C 96 % 1031,1 hPa 0,0 l/m 0 min 0 min 0 W/m 12,9 km/h (3 Bft) 93,62 %
01.01.2020 21:18 0,9 C 0,0 C -0,6 C 95 % 1031,1 hPa 0,0 l/m 0 min 0 min 0 W/m 16,1 km/h (3 Bft) 95,74 %
01.01.2020 21:20 0,9 C 0,0 C -0,6 C 96 % 1031,1 hPa 0,0 l/m 0 min 0 min 0 W/m 12,9 km/h (3 Bft) 95,65 %
01.01.2020 21:22 0,9 C 0,0 C -0,6 C 95 % 1031,1 hPa 0,0 l/m 0 min 0 min 0 W/m 12,9 km/h (3 Bft) 95,74 %
01.01.2020 21:24 0,9 C 0,0 C -0,6 C 95 % 1031,0 hPa 0,0 l/m 0 min 0 min 0 W/m 6,4 km/h (2 Bft) 95,74 %
01.01.2020 21:26 0,9 C 0,0 C -0,6 C 95 % 1031,0 hPa 0,0 l/m 0 min 0 min 0 W/m 12,9 km/h (3 Bft) 93,62 %
01.01.2020 21:28 0,8 C 0,0 C -0,6 C 95 % 1030,9 hPa 0,0 l/m 0 min 0 min 0 W/m 12,9 km/h (3 Bft) 95,74 %
01.01.2020 21:30 0,8 C 0,0 C -0,6 C 95 % 1030,9 hPa 0,0 l/m 0 min 0 min 0 W/m 6,4 km/h (2 Bft) 95,74 %
01.01.2020 21:32 0,8 C 0,0 C -0,6 C 95 % 1030,9 hPa 0,0 l/m 0 min 0 min 0 W/m 12,9 km/h (3 Bft) 95,65 %
01.01.2020 21:34 0,8 C 0,0 C -0,6 C 95 % 1031,0 hPa 0,0 l/m 0 min 0 min 0 W/m 12,9 km/h (3 Bft) 95,74 %
01.01.2020 21:36 0,8 C 0,0 C -0,6 C 95 % 1030,9 hPa 0,0 l/m 0 min 0 min 0 W/m 12,9 km/h (3 Bft) 95,74 %
01.01.2020 21:38 0,8 C 0,0 C -0,6 C 95 % 1030,9 hPa 0,0 l/m 0 min 0 min 0 W/m 12,9 km/h (3 Bft) 95,74 %
01.01.2020 21:40 0,7 C 0,0 C -0,6 C 95 % 1030,8 hPa 0,0 l/m 0 min 0 min 0 W/m 16,1 km/h (3 Bft) 95,74 %
01.01.2020 21:42 0,7 C 0,0 C -0,6 C 95 % 1030,8 hPa 0,0 l/m 0 min 0 min 0 W/m 12,9 km/h (3 Bft) 93,62 %
01.01.2020 21:44 0,7 C 0,0 C -0,6 C 95 % 1030,7 hPa 0,0 l/m 0 min 0 min 0 W/m 12,9 km/h (3 Bft) 97,83 %
01.01.2020 21:46 0,7 C 0,0 C -0,6 C 95 % 1030,7 hPa 0,0 l/m 0 min 0 min 0 W/m 12,9 km/h (3 Bft) 97,87 %
01.01.2020 21:48 0,7 C 0,0 C -0,6 C 95 % 1030,7 hPa 0,0 l/m 0 min 0 min 0 W/m 16,1 km/h (3 Bft) 97,87 %
01.01.2020 21:50 0,7 C 0,0 C -0,6 C 95 % 1030,7 hPa 0,0 l/m 0 min 0 min 0 W/m 16,1 km/h (3 Bft) 93,62 %
01.01.2020 21:52 0,7 C 0,0 C -0,6 C 95 % 1030,7 hPa 0,0 l/m 0 min 0 min 0 W/m 12,9 km/h (3 Bft) 97,87 %
01.01.2020 21:54 0,7 C 0,0 C -0,6 C 95 % 1030,6 hPa 0,0 l/m 0 min 0 min 0 W/m 12,9 km/h (3 Bft) 97,87 %
01.01.2020 21:56 0,7 C 0,0 C -0,6 C 95 % 1030,6 hPa 0,0 l/m 0 min 0 min 0 W/m 16,1 km/h (3 Bft) 97,83 %
01.01.2020 21:58 0,7 C 0,0 C -0,6 C 95 % 1030,6 hPa 0,0 l/m 0 min 0 min 0 W/m 12,9 km/h (3 Bft) 95,74 %
01.01.2020 22:00 0,7 C 0,0 C -0,6 C 95 % 1030,6 hPa 0,0 l/m 0 min 0 min 0 W/m 12,9 km/h (3 Bft) 97,87 %
01.01.2020 22:02 0,6 C 0,0 C -0,6 C 95 % 1030,7 hPa 0,0 l/m 0 min 0 min 0 W/m 6,4 km/h (2 Bft) 48,78 %
01.01.2020 22:04 0,6 C 0,0 C -0,6 C 95 % 1030,6 hPa 0,0 l/m 0 min 0 min 0 W/m 16,1 km/h (3 Bft) 97,87 %
01.01.2020 22:06 0,6 C 0,0 C -0,6 C 95 % 1030,5 hPa 0,0 l/m 0 min 0 min 0 W/m 16,1 km/h (3 Bft) 97,87 %
01.01.2020 22:08 0,6 C 0,0 C -0,6 C 95 % 1030,5 hPa 0,0 l/m 0 min 0 min 0 W/m 16,1 km/h (3 Bft) 97,83 %
01.01.2020 22:10 0,6 C 0,0 C -0,6 C 95 % 1030,5 hPa 0,0 l/m 0 min 0 min 0 W/m 16,1 km/h (3 Bft) 95,74 %
01.01.2020 22:12 0,6 C 0,0 C -0,6 C 95 % 1030,5 hPa 0,0 l/m 0 min 0 min 0 W/m 12,9 km/h (3 Bft) 97,87 %
01.01.2020 22:14 0,6 C 0,0 C -0,6 C 95 % 1030,5 hPa 0,0 l/m 0 min 0 min 0 W/m 19,3 km/h (3 Bft) 95,74 %
01.01.2020 22:16 0,6 C 0,0 C -0,6 C 95 % 1030,5 hPa 0,0 l/m 0 min 0 min 0 W/m 19,3 km/h (3 Bft) 95,74 %
01.01.2020 22:18 0,6 C 0,0 C -0,6 C 96 % 1030,5 hPa 0,0 l/m 0 min 0 min 0 W/m 16,1 km/h (3 Bft) 100,00 %
01.01.2020 22:20 0,6 C 0,0 C -0,6 C 96 % 1030,5 hPa 0,0 l/m 0 min 0 min 0 W/m 16,1 km/h (3 Bft) 97,87 %
01.01.2020 22:22 0,6 C 0,0 C -0,6 C 96 % 1030,5 hPa 0,0 l/m 0 min 0 min 0 W/m 16,1 km/h (3 Bft) 100,00 %
01.01.2020 22:24 0,6 C 0,0 C -0,6 C 96 % 1030,5 hPa 0,0 l/m 0 min 0 min 0 W/m 16,1 km/h (3 Bft) 100,00 %
01.01.2020 22:26 0,6 C 0,0 C -0,6 C 96 % 1030,5 hPa 0,0 l/m 0 min 0 min 0 W/m 6,4 km/h (2 Bft) 100,00 %
01.01.2020 22:28 0,6 C 0,0 C -0,6 C 96 % 1030,6 hPa 0,0 l/m 0 min 0 min 0 W/m 3,2 km/h (1 Bft) 100,00 %
01.01.2020 22:30 0,6 C 0,0 C -0,6 C 96 % 1030,6 hPa 0,0 l/m 0 min 0 min 0 W/m 6,4 km/h (2 Bft) 95,65 %
01.01.2020 22:32 0,6 C 0,0 C -0,6 C 96 % 1030,6 hPa 0,0 l/m 0 min 0 min 0 W/m 12,9 km/h (3 Bft) 95,74 %
01.01.2020 22:34 0,6 C 0,0 C -0,6 C 96 % 1030,6 hPa 0,0 l/m 0 min 0 min 0 W/m 16,1 km/h (3 Bft) 97,87 %
01.01.2020 22:36 0,6 C 0,0 C -0,6 C 96 % 1030,6 hPa 0,0 l/m 0 min 0 min 0 W/m 3,2 km/h (1 Bft) 100,00 %
01.01.2020 22:38 0,6 C 0,0 C -0,6 C 96 % 1030,6 hPa 0,0 l/m 0 min 0 min 0 W/m 6,4 km/h (2 Bft) 97,87 %
01.01.2020 22:40 0,6 C 0,0 C -0,6 C 96 % 1030,6 hPa 0,0 l/m 0 min 0 min 0 W/m 6,4 km/h (2 Bft) 95,74 %
01.01.2020 22:42 0,6 C 0,0 C -0,6 C 96 % 1030,7 hPa 0,0 l/m 0 min 0 min 0 W/m 0,0 km/h (0 Bft) 97,83 %
01.01.2020 22:44 0,6 C 0,0 C -0,6 C 96 % 1030,8 hPa 0,0 l/m 0 min 0 min 0 W/m 3,2 km/h (1 Bft) 97,87 %
01.01.2020 22:46 0,6 C 0,0 C -1,1 C 96 % 1030,8 hPa 0,0 l/m 0 min 0 min 0 W/m 6,4 km/h (2 Bft) 100,00 %
01.01.2020 22:48 0,6 C 0,0 C -1,1 C 96 % 1030,8 hPa 0,0 l/m 0 min 0 min 0 W/m 6,4 km/h (2 Bft) 97,87 %
01.01.2020 22:50 0,6 C 0,0 C -1,1 C 96 % 1031,0 hPa 0,0 l/m 0 min 0 min 0 W/m 0,0 km/h (0 Bft) 95,74 %
01.01.2020 22:52 0,6 C -0,6 C -1,1 C 96 % 1031,0 hPa 0,0 l/m 0 min 0 min 0 W/m 0,0 km/h (0 Bft) 97,87 %
01.01.2020 22:54 0,6 C -0,6 C -1,1 C 96 % 1031,1 hPa 0,0 l/m 0 min 0 min 0 W/m 0,0 km/h (0 Bft) 97,83 %
01.01.2020 22:56 0,6 C -0,6 C -1,1 C 96 % 1031,1 hPa 0,0 l/m 0 min 0 min 0 W/m 0,0 km/h (0 Bft) 97,87 %
01.01.2020 22:58 0,6 C -0,6 C -1,1 C 96 % 1031,1 hPa 0,0 l/m 0 min 0 min 0 W/m 0,0 km/h (0 Bft) 97,87 %
01.01.2020 23:00 0,6 C -0,6 C -1,1 C 96 % 1031,1 hPa 0,0 l/m 0 min 0 min 0 W/m 0,0 km/h (0 Bft) 97,87 %
01.01.2020 23:02 0,6 C -0,6 C -1,7 C 96 % 1031,1 hPa 0,0 l/m 0 min 0 min 0 W/m 0,0 km/h (0 Bft) 97,87 %
01.01.2020 23:04 0,5 C -0,6 C -1,7 C 96 % 1031,1 hPa 0,0 l/m 0 min 0 min 0 W/m 0,0 km/h (0 Bft) 95,74 %
01.01.2020 23:06 0,5 C -0,6 C -1,7 C 96 % 1031,1 hPa 0,0 l/m 0 min 0 min 0 W/m 3,2 km/h (1 Bft) 97,83 %
01.01.2020 23:08 0,5 C -0,6 C -1,7 C 95 % 1031,1 hPa 0,0 l/m 0 min 0 min 0 W/m 6,4 km/h (2 Bft) 97,87 %
01.01.2020 23:10 0,4 C -0,6 C -1,1 C 95 % 1031,0 hPa 0,0 l/m 0 min 0 min 0 W/m 6,4 km/h (2 Bft) 95,74 %
01.01.2020 23:12 0,4 C -0,6 C -1,1 C 95 % 1031,0 hPa 0,0 l/m 0 min 0 min 0 W/m 12,9 km/h (3 Bft) 97,87 %
01.01.2020 23:14 0,4 C -0,6 C -1,1 C 95 % 1031,0 hPa 0,0 l/m 0 min 0 min 0 W/m 6,4 km/h (2 Bft) 95,74 %
01.01.2020 23:16 0,4 C -0,6 C -1,1 C 95 % 1031,0 hPa 0,0 l/m 0 min 0 min 0 W/m 12,9 km/h (3 Bft) 95,74 %
01.01.2020 23:18 0,4 C -0,6 C -1,1 C 95 % 1030,9 hPa 0,0 l/m 0 min 0 min 0 W/m 12,9 km/h (3 Bft) 97,83 %
01.01.2020 23:20 0,4 C -0,6 C -1,1 C 95 % 1030,8 hPa 0,0 l/m 0 min 0 min 0 W/m 12,9 km/h (3 Bft) 97,87 %
01.01.2020 23:22 0,3 C -0,6 C -1,1 C 95 % 1030,7 hPa 0,0 l/m 0 min 0 min 0 W/m 12,9 km/h (3 Bft) 93,62 %
01.01.2020 23:24 0,3 C -0,6 C -1,1 C 95 % 1030,7 hPa 0,0 l/m 0 min 0 min 0 W/m 6,4 km/h (2 Bft) 97,87 %
01.01.2020 23:26 0,3 C -0,6 C -1,1 C 95 % 1030,7 hPa 0,0 l/m 0 min 0 min 0 W/m 6,4 km/h (2 Bft) 95,74 %
01.01.2020 23:28 0,3 C -0,6 C -1,1 C 96 % 1030,7 hPa 0,0 l/m 0 min 0 min 0 W/m 6,4 km/h (2 Bft) 97,83 %
01.01.2020 23:30 0,3 C -0,6 C -1,1 C 96 % 1030,7 hPa 0,0 l/m 0 min 0 min 0 W/m 16,1 km/h (3 Bft) 97,87 %
01.01.2020 23:32 0,3 C -0,6 C -1,1 C 96 % 1030,7 hPa 0,0 l/m 0 min 0 min 0 W/m 16,1 km/h (3 Bft) 56,52 %
01.01.2020 23:34 0,3 C -0,6 C -1,1 C 96 % 1030,7 hPa 0,0 l/m 0 min 0 min 0 W/m 6,4 km/h (2 Bft) 100,00 %
01.01.2020 23:36 0,3 C -0,6 C -1,1 C 96 % 1030,7 hPa 0,0 l/m 0 min 0 min 0 W/m 6,4 km/h (2 Bft) 100,00 %
01.01.2020 23:38 0,3 C -0,6 C -1,1 C 96 % 1030,6 hPa 0,0 l/m 0 min 0 min 0 W/m 0,0 km/h (0 Bft) 97,87 %
01.01.2020 23:40 0,3 C -0,6 C -1,1 C 96 % 1030,6 hPa 0,0 l/m 0 min 0 min 0 W/m 6,4 km/h (2 Bft) 97,83 %
01.01.2020 23:42 0,2 C -0,6 C -1,1 C 96 % 1030,6 hPa 0,0 l/m 0 min 0 min 0 W/m 6,4 km/h (2 Bft) 97,87 %
01.01.2020 23:44 0,2 C -0,6 C -1,1 C 96 % 1030,6 hPa 0,0 l/m 0 min 0 min 0 W/m 0,0 km/h (0 Bft) 97,87 %
01.01.2020 23:46 0,2 C -0,6 C -1,1 C 96 % 1030,6 hPa 0,0 l/m 0 min 0 min 0 W/m 0,0 km/h (0 Bft) 95,74 %
01.01.2020 23:48 0,2 C -0,6 C -1,1 C 95 % 1030,6 hPa 0,0 l/m 0 min 0 min 0 W/m 0,0 km/h (0 Bft) 97,87 %
01.01.2020 23:50 0,2 C -0,6 C -1,1 C 95 % 1030,5 hPa 0,0 l/m 0 min 0 min 0 W/m 3,2 km/h (1 Bft) 97,87 %
01.01.2020 23:52 0,2 C -0,6 C -1,1 C 95 % 1030,6 hPa 0,0 l/m 0 min 0 min 0 W/m 0,0 km/h (0 Bft) 97,83 %
01.01.2020 23:54 0,2 C -0,6 C -1,7 C 95 % 1030,6 hPa 0,0 l/m 0 min 0 min 0 W/m 0,0 km/h (0 Bft) 97,87 %
01.01.2020 23:56 0,1 C -0,6 C -1,7 C 95 % 1030,6 hPa 0,0 l/m 0 min 0 min 0 W/m 0,0 km/h (0 Bft) 97,87 %
01.01.2020 23:58 0,1 C -1,1 C -1,7 C 95 % 1030,6 hPa 0,0 l/m 0 min 0 min 0 W/m 0,0 km/h (0 Bft) 97,87 %
_ Min-Zeit 06:52 18:18 18:24 14:36 22:06 - - - - 00:02 00:02
Minimum _ -0,3 C -1,7 C -2,8 C 89 % 1030,5 hPa - - - - 0,0 km/h (0 Bft) 5,88 %
_ Max-Zeit 14:24 14:04 14:02 01:30 00:00 10:36 10:12 00:00 12:56 11:56 00:12
Maximum _ 4,1 C 7,8 C 3,3 C 97 % 1035,8 hPa 0,2 l/m 2 min 0 min 286 W/m 32,2 km/h
S (5 Bft)
100,00 %
Durchschnitt _ 1,0 C 0,7 C -0,4 C 95 % 1032,8 hPa #0,2 l/m #2:54 h #0 min. 112 W/m 8,3 km/h (2 Bft) 96,74 %
© 2020 W. Hausmann